BF6810 / TF-BBN 7700 Squawk Report (26th of January, 2021)

Time Lat Lon Altitude Heading Speed Vertical Rate
2021-01-26 08:58:58 GMT 57.199596 -2.201430 0 247 3 0
2021-01-26 08:58:49 GMT 57.199654 -2.201192 0 244 6 0
2021-01-26 08:58:42 GMT 57.199768 -2.200871 0 205 8 0
2021-01-26 08:58:29 GMT 57.200237 -2.200935 0 160 11 0
2021-01-26 08:58:18 GMT 57.200806 -2.201363 0 157 15 0
2021-01-26 08:58:04 GMT 57.201702 -2.202008 0 160 15 0
2021-01-26 08:58:02 GMT 57.201851 -2.202115 0 157 16 0
2021-01-26 08:57:51 GMT 57.202530 -2.202626 0 157 14 0
2021-01-26 08:57:42 GMT 57.203064 -2.203002 0 168 11 0
2021-01-26 08:57:30 GMT 57.203541 -2.202759 0 227 11 0
2021-01-26 08:57:20 GMT 57.203705 -2.201961 0 292 11 0
2021-01-26 08:57:06 GMT 57.203224 -2.201021 0 320 12 0
2021-01-26 08:56:50 GMT 57.202389 -2.199690 0 320 17 0
2021-01-26 08:56:21 GMT 57.200638 -2.196922 0 326 20 0
2021-01-26 08:56:13 GMT 57.199852 -2.196225 0 337 22 0
2021-01-26 08:56:10 GMT 57.199711 -2.196114 0 337 21 0
2021-01-26 08:56:00 GMT 57.198837 -2.195494 0 337 20 0
2021-01-26 08:55:50 GMT 57.198036 -2.194896 0 337 18 0
2021-01-26 08:55:40 GMT 57.197308 -2.194347 0 337 15 0
2021-01-26 08:55:30 GMT 57.196709 -2.193921 0 337 15 0
2021-01-26 08:55:19 GMT 57.196049 -2.193425 0 337 14 0
2021-01-26 08:55:09 GMT 57.195534 -2.193060 0 334 11 0
2021-01-26 08:52:17 GMT 57.211304 -2.204647 350 158 140 -768
2021-01-26 08:52:09 GMT 57.216202 -2.208252 450 158 140 -704
2021-01-26 08:52:08 GMT 57.216751 -2.208695 450 158 140 -768
2021-01-26 08:52:06 GMT 57.217915 -2.209492 475 158 140 -768
2021-01-26 08:52:05 GMT 57.218582 -2.209969 500 158 140 -768
2021-01-26 08:52:03 GMT 57.219543 -2.210644 500 158 140 -704
2021-01-26 08:51:56 GMT 57.224152 -2.214011 575 158 141 -704
2021-01-26 08:51:47 GMT 57.229614 -2.218037 725 158 140 -896
2021-01-26 08:51:35 GMT 57.236675 -2.223314 875 158 140 -640
2021-01-26 08:51:33 GMT 57.238770 -2.224817 900 158 140 -704
2021-01-26 08:51:30 GMT 57.239655 -2.225529 925 158 140 -704
2021-01-26 08:51:24 GMT 57.243347 -2.228165 1,000 158 138 -960
2021-01-26 08:51:17 GMT 57.247616 -2.231376 1,125 158 136 -832
2021-01-26 08:51:16 GMT 57.248154 -2.231770 1,125 158 136 -832
2021-01-26 08:51:14 GMT 57.249481 -2.232714 1,175 158 136 -832
2021-01-26 08:51:11 GMT 57.251083 -2.233915 1,200 158 136 -768
2021-01-26 08:51:08 GMT 57.252686 -2.235031 1,250 158 135 -640
2021-01-26 08:51:06 GMT 57.253853 -2.235895 1,250 158 135 -512
2021-01-26 08:51:04 GMT 57.255707 -2.237263 1,275 158 135 -384
2021-01-26 08:51:02 GMT 57.256302 -2.237692 1,275 158 135 -448
2021-01-26 08:51:01 GMT 57.256943 -2.238207 1,300 158 135 -512
2021-01-26 08:50:59 GMT 57.257858 -2.238894 1,300 157 135 -512
2021-01-26 08:50:58 GMT 57.258408 -2.239237 1,325 157 135 -576
2021-01-26 08:50:57 GMT 57.259159 -2.239793 1,325 157 135 -640
2021-01-26 08:50:56 GMT 57.259720 -2.240236 1,350 157 135 -640
2021-01-26 08:50:55 GMT 57.260559 -2.240868 1,350 157 135 -640
2021-01-26 08:50:54 GMT 57.261108 -2.241297 1,375 158 134 -640
2021-01-26 08:50:52 GMT 57.262207 -2.242155 1,400 158 133 -704
2021-01-26 08:50:51 GMT 57.262802 -2.242584 1,400 158 133 -768
2021-01-26 08:50:50 GMT 57.263302 -2.242894 1,425 157 132 -768
2021-01-26 08:50:48 GMT 57.264450 -2.243786 1,450 158 132 -768
2021-01-26 08:50:46 GMT 57.265594 -2.244644 1,475 158 132 -704
2021-01-26 08:50:45 GMT 57.266190 -2.245073 1,475 158 132 -704
2021-01-26 08:50:44 GMT 57.266701 -2.245464 1,475 158 132 -704
2021-01-26 08:50:43 GMT 57.267307 -2.245907 1,500 158 132 -704
2021-01-26 08:50:42 GMT 57.267792 -2.246275 1,500 158 132 -704
2021-01-26 08:50:41 GMT 57.268433 -2.246704 1,525 158 132 -704
2021-01-26 08:50:39 GMT 57.269623 -2.247562 1,550 158 132 -640
2021-01-26 08:50:38 GMT 57.270172 -2.247992 1,550 158 132 -640
2021-01-26 08:50:37 GMT 57.270798 -2.248476 1,575 158 133 -640
2021-01-26 08:50:36 GMT 57.271404 -2.248919 1,575 158 133 -704
2021-01-26 08:50:35 GMT 57.272472 -2.249716 1,600 158 133 -704
2021-01-26 08:50:33 GMT 57.273033 -2.250159 1,600 158 133 -768
2021-01-26 08:50:32 GMT 57.273605 -2.250566 1,625 158 133 -768
2021-01-26 08:50:31 GMT 57.274200 -2.250996 1,625 158 133 -832
2021-01-26 08:50:30 GMT 57.274750 -2.251425 1,650 158 134 -832
2021-01-26 08:50:28 GMT 57.276012 -2.252374 1,675 158 134 -896
2021-01-26 08:50:26 GMT 57.276665 -2.252817 1,700 157 135 -896
2021-01-26 08:50:25 GMT 57.277687 -2.253615 1,725 157 135 -960
2021-01-26 08:50:24 GMT 57.278061 -2.253881 1,725 158 136 -896
2021-01-26 08:50:23 GMT 57.279270 -2.254767 1,750 158 137 -896
2021-01-26 08:50:21 GMT 57.279877 -2.255210 1,775 158 138 -896
2021-01-26 08:50:20 GMT 57.280479 -2.255653 1,800 158 138 -896
2021-01-26 08:50:19 GMT 57.281132 -2.256096 1,800 158 140 -896
2021-01-26 08:50:17 GMT 57.282341 -2.256982 1,825 158 140 -896
2021-01-26 08:50:16 GMT 57.282993 -2.257513 1,850 158 143 -896
2021-01-26 08:50:15 GMT 57.283676 -2.257948 1,875 158 144 -832
2021-01-26 08:50:14 GMT 57.284206 -2.258399 1,875 158 145 -832
2021-01-26 08:50:13 GMT 57.284855 -2.258842 1,900 158 147 -832
2021-01-26 08:50:12 GMT 57.285507 -2.259374 1,925 158 148 -832
2021-01-26 08:50:11 GMT 57.286102 -2.259750 1,925 158 148 -832
2021-01-26 08:50:06 GMT 57.289169 -2.262068 2,000 158 155 -832
2021-01-26 08:50:01 GMT 57.292538 -2.264424 2,075 159 159 -832
2021-01-26 08:49:55 GMT 57.296814 -2.267475 2,150 159 165 -960
2021-01-26 08:49:51 GMT 57.299744 -2.269535 2,200 159 169 -896
2021-01-26 08:49:45 GMT 57.303989 -2.272487 2,300 159 176 -896
2021-01-26 08:49:41 GMT 57.307343 -2.274857 2,350 158 181 -896
2021-01-26 08:49:35 GMT 57.311531 -2.277802 2,450 158 186 -1024
2021-01-26 08:49:31 GMT 57.315067 -2.280460 2,525 157 188 -960
2021-01-26 08:49:25 GMT 57.319656 -2.283869 2,600 157 190 -960
2021-01-26 08:49:21 GMT 57.323318 -2.286787 2,675 156 193 -832
2021-01-26 08:49:16 GMT 57.327942 -2.290478 2,750 155 196 -640
2021-01-26 08:49:11 GMT 57.331512 -2.293482 2,800 154 200 -576
2021-01-26 08:49:05 GMT 57.336296 -2.297737 2,850 153 204 -640
2021-01-26 08:49:01 GMT 57.340027 -2.301207 2,875 152 207 -576
2021-01-26 08:48:55 GMT 57.345097 -2.306066 2,950 151 212 -640
2021-01-26 08:48:51 GMT 57.348633 -2.309610 3,000 151 216 -704
2021-01-26 08:48:45 GMT 57.353893 -2.315103 3,050 148 218 -896
2021-01-26 08:48:41 GMT 57.357384 -2.319090 3,150 145 219 -1216
2021-01-26 08:48:35 GMT 57.362000 -2.325497 3,275 137 218 -1600
2021-01-26 08:48:31 GMT 57.365204 -2.331582 3,400 129 219 -1728
2021-01-26 08:48:24 GMT 57.368912 -2.340689 3,550 126 221 -1472
2021-01-26 08:48:21 GMT 57.371117 -2.346201 3,625 126 221 -1408
2021-01-26 08:48:14 GMT 57.375072 -2.356390 3,775 124 224 -1280
2021-01-26 08:48:11 GMT 57.377125 -2.361972 3,850 122 226 -1280
2021-01-26 08:48:05 GMT 57.380241 -2.372072 4,000 116 227 -1472
2021-01-26 08:48:00 GMT 57.382244 -2.379337 4,100 117 228 -1408
2021-01-26 08:47:55 GMT 57.385269 -2.390412 4,225 117 232 -960
2021-01-26 08:47:50 GMT 57.387131 -2.397146 4,275 117 233 -960
2021-01-26 08:47:43 GMT 57.391205 -2.411928 4,425 117 236 -704
2021-01-26 08:47:40 GMT 57.392166 -2.415361 4,425 117 237 -576
2021-01-26 08:47:30 GMT 57.397202 -2.433472 4,500 117 245 -512
2021-01-26 08:47:24 GMT 57.400352 -2.444901 4,550 117 249 -576
2021-01-26 08:47:21 GMT 57.402283 -2.451754 4,600 117 251 -640
2021-01-26 08:47:14 GMT 57.405846 -2.464659 4,675 117 256 -704
2021-01-26 08:47:10 GMT 57.407753 -2.471569 4,700 117 259 -896
2021-01-26 08:47:00 GMT 57.413296 -2.491593 4,850 117 261 -704
2021-01-26 08:46:50 GMT 57.418835 -2.511705 4,975 117 261 -768
2021-01-26 08:46:40 GMT 57.424210 -2.531319 5,075 117 261 -704
2021-01-26 08:46:30 GMT 57.429840 -2.551575 5,200 117 260 -768
2021-01-26 08:46:20 GMT 57.435287 -2.571316 5,350 117 262 -768
2021-01-26 08:46:10 GMT 57.441132 -2.592153 5,475 117 264 -768
2021-01-26 08:46:05 GMT 57.444031 -2.602644 5,550 117 264 -768
2021-01-26 08:46:00 GMT 57.446640 -2.611914 5,575 117 264 -768
2021-01-26 08:45:52 GMT 57.451859 -2.630625 5,775 117 265 -832
2021-01-26 08:45:47 GMT 57.453827 -2.637663 5,775 117 265 -832
2021-01-26 08:45:45 GMT 57.455143 -2.642478 5,800 117 265 -832
2021-01-26 08:45:41 GMT 57.457474 -2.650806 5,850 117 265 -832
2021-01-26 08:45:37 GMT 57.459614 -2.658514 5,900 117 266 -832
2021-01-26 08:45:35 GMT 57.460636 -2.662147 5,925 117 266 -832
2021-01-26 08:45:30 GMT 57.463432 -2.672336 6,000 117 266 -768
2021-01-26 08:45:27 GMT 57.465012 -2.678183 6,050 117 265 -576
2021-01-26 08:45:25 GMT 57.466316 -2.682879 6,075 117 265 -384
2021-01-26 08:45:21 GMT 57.468704 -2.691307 6,075 118 264 -64
2021-01-26 08:45:17 GMT 57.470810 -2.698259 6,075 121 265 64
2021-01-26 08:45:15 GMT 57.475349 -2.711231 6,050 124 264 64
2021-01-26 08:45:11 GMT 57.475349 -2.711231 6,075 124 265 0
2021-01-26 08:45:07 GMT 57.477768 -2.717699 6,075 124 265 -64
2021-01-26 08:45:05 GMT 57.479141 -2.721262 6,075 124 265 -64
2021-01-26 08:45:01 GMT 57.482483 -2.730188 6,075 124 265 0
2021-01-26 08:44:57 GMT 57.484772 -2.736368 6,075 124 265 0
2021-01-26 08:44:55 GMT 57.486103 -2.739937 6,075 124 265 0
2021-01-26 08:44:50 GMT 57.489487 -2.749071 6,075 124 264 0
2021-01-26 08:44:45 GMT 57.493103 -2.758856 6,075 124 264 0
2021-01-26 08:44:40 GMT 57.496807 -2.768909 6,075 124 263 -64
2021-01-26 08:44:37 GMT 57.498596 -2.773705 6,075 124 262 -64
2021-01-26 08:44:34 GMT 57.500347 -2.778566 6,075 124 262 -64
2021-01-26 08:44:30 GMT 57.502945 -2.785635 6,075 124 262 0
2021-01-26 08:44:27 GMT 57.505280 -2.792034 6,075 124 262 0
2021-01-26 08:44:25 GMT 57.506882 -2.796450 6,075 123 262 0
2021-01-26 08:44:20 GMT 57.510170 -2.805412 6,075 123 262 64
2021-01-26 08:44:17 GMT 57.512077 -2.810728 6,075 124 264 -192
2021-01-26 08:44:14 GMT 57.513893 -2.815778 6,075 124 264 -384
2021-01-26 08:44:10 GMT 57.517090 -2.824430 6,125 124 265 -1024
2021-01-26 08:44:07 GMT 57.519058 -2.829838 6,175 124 266 -1408
2021-01-26 08:44:05 GMT 57.520523 -2.833786 6,250 124 266 -1600
2021-01-26 08:44:01 GMT 57.523636 -2.842283 6,350 124 267 -1536
2021-01-26 08:43:55 GMT 57.527527 -2.852926 6,550 124 268 -1536
2021-01-26 08:43:50 GMT 57.530930 -2.862293 6,625 124 269 -1536
2021-01-26 08:43:47 GMT 57.532883 -2.867603 6,725 124 269 -1600
2021-01-26 08:43:45 GMT 57.538147 -2.881962 6,775 124 269 -1536
2021-01-26 08:43:40 GMT 57.538147 -2.881962 6,900 124 270 -1600
2021-01-26 08:43:37 GMT 57.539917 -2.886835 6,975 124 271 -1600
2021-01-26 08:43:35 GMT 57.541313 -2.890645 7,100 123 272 -1536
2021-01-26 08:43:27 GMT 57.547272 -2.907124 7,225 123 273 -1536
2021-01-26 08:43:24 GMT 57.549877 -2.914389 7,325 124 274 -1536
2021-01-26 08:43:17 GMT 57.554077 -2.925882 7,500 124 275 -1664
2021-01-26 08:43:15 GMT 57.555416 -2.929628 7,525 124 275 -1664
2021-01-26 08:43:10 GMT 57.559280 -2.940172 7,675 124 276 -1664
2021-01-26 08:43:07 GMT 57.561401 -2.946138 7,750 124 276 -1664
2021-01-26 08:43:05 GMT 57.562729 -2.949657 7,975 124 277 -1664
2021-01-26 08:43:03 GMT 57.564056 -2.953348 7,850 124 277 -1664
2021-01-26 08:42:57 GMT 57.568871 -2.966663 8,025 124 279 -1600
2021-01-26 08:42:54 GMT 57.575546 -2.984848 8,150 124 279 -1600
2021-01-26 08:42:47 GMT 57.575546 -2.984848 8,300 124 280 -1664
2021-01-26 08:42:45 GMT 57.577297 -2.989699 8,350 124 280 -1664
2021-01-26 08:42:43 GMT 57.578461 -2.992888 8,425 124 281 -1728
2021-01-26 08:42:40 GMT 57.581020 -2.999888 8,500 124 281 -1792
2021-01-26 08:42:37 GMT 57.582836 -3.004849 8,600 124 281 -1792
2021-01-26 08:42:35 GMT 57.584610 -3.009653 8,650 124 281 -1856
2021-01-26 08:42:30 GMT 57.588238 -3.019734 8,800 124 281 -1920
2021-01-26 08:42:27 GMT 57.590378 -3.025532 8,900 124 281 -1920
2021-01-26 08:42:25 GMT 57.591843 -3.029566 8,950 124 282 -1856
2021-01-26 08:42:21 GMT 57.595127 -3.038606 9,075 124 281 -1920
2021-01-26 08:42:17 GMT 57.597687 -3.045605 9,225 124 281 -2176
2021-01-26 08:42:15 GMT 57.599129 -3.049592 9,400 124 280 -2176
2021-01-26 08:42:13 GMT 57.600666 -3.053756 9,375 124 280 -2176
2021-01-26 08:42:10 GMT 57.603786 -3.062350 9,525 124 279 -2176
2021-01-26 08:42:07 GMT 57.604855 -3.065363 9,600 124 279 -2240
2021-01-26 08:42:05 GMT 57.610153 -3.079863 9,975 124 278 -2112
2021-01-26 08:42:00 GMT 57.610153 -3.079863 9,975 123 280 -832
2021-01-26 08:41:57 GMT 57.612122 -3.085184 9,925 124 279 -1408
2021-01-26 08:41:55 GMT 57.613468 -3.089019 9,950 124 280 -896
2021-01-26 08:41:47 GMT 57.619381 -3.105232 10,025 124 282 0
2021-01-26 08:41:45 GMT 57.620823 -3.109308 10,025 124 282 0
2021-01-26 08:41:37 GMT 57.626595 -3.125256 10,000 124 282 0
2021-01-26 08:41:35 GMT 57.628273 -3.129863 10,000 124 282 -64
2021-01-26 08:41:27 GMT 57.634048 -3.145781 10,025 124 282 0
2021-01-26 08:41:25 GMT 57.635487 -3.149798 10,025 124 282 0
2021-01-26 08:41:22 GMT 57.637711 -3.155823 10,025 124 282 0
2021-01-26 08:41:17 GMT 57.641281 -3.165693 10,025 124 281 0
2021-01-26 08:41:15 GMT 57.643028 -3.170530 10,025 124 281 64
2021-01-26 08:41:12 GMT 57.644897 -3.175735 10,025 124 281 0
2021-01-26 08:41:07 GMT 57.648605 -3.185949 10,025 124 281 0
2021-01-26 08:41:05 GMT 57.650162 -3.190155 10,025 124 281 0
2021-01-26 08:41:03 GMT 57.652061 -3.195338 10,025 124 281 64
2021-01-26 08:40:59 GMT 57.653961 -3.200541 10,025 124 281 64
2021-01-26 08:40:57 GMT 57.655975 -3.206205 10,025 124 281 0
2021-01-26 08:40:55 GMT 57.657669 -3.210754 10,025 124 280 0
2021-01-26 08:40:51 GMT 57.659973 -3.217222 10,025 123 280 0
2021-01-26 08:40:47 GMT 57.663326 -3.226436 10,025 123 280 0
2021-01-26 08:40:45 GMT 57.664902 -3.230839 10,000 123 280 64
2021-01-26 08:40:41 GMT 57.667328 -3.237600 10,000 123 280 64
2021-01-26 08:40:37 GMT 57.670349 -3.246117 10,000 123 279 0
2021-01-26 08:40:34 GMT 57.672134 -3.251095 10,000 123 280 0
2021-01-26 08:40:31 GMT 57.674454 -3.257535 10,000 123 280 0
2021-01-26 08:40:27 GMT 57.677525 -3.266129 10,000 123 279 0
2021-01-26 08:40:24 GMT 57.679230 -3.271008 10,000 123 279 0
2021-01-26 08:40:20 GMT 57.681885 -3.278389 10,000 123 280 -64
2021-01-26 08:40:17 GMT 57.684788 -3.286418 10,000 123 280 0
2021-01-26 08:40:14 GMT 57.686508 -3.291178 10,000 123 279 0
2021-01-26 08:40:10 GMT 57.689301 -3.299074 10,000 123 280 0
2021-01-26 08:40:07 GMT 57.691860 -3.306265 10,000 123 279 0
2021-01-26 08:40:04 GMT 57.693539 -3.310872 10,000 123 280 0
2021-01-26 08:40:00 GMT 57.696533 -3.319330 10,000 123 279 0
2021-01-26 08:39:57 GMT 57.699123 -3.326465 10,000 123 280 64
2021-01-26 08:39:54 GMT 57.700939 -3.331515 10,000 123 280 64
2021-01-26 08:39:51 GMT 57.703220 -3.337895 10,000 123 279 0
2021-01-26 08:39:47 GMT 57.706375 -3.346710 10,000 123 279 0
2021-01-26 08:39:44 GMT 57.707932 -3.350916 10,000 123 279 0
2021-01-26 08:39:42 GMT 57.709877 -3.356323 10,000 123 279 64
2021-01-26 08:39:37 GMT 57.713600 -3.366778 10,000 123 279 0
2021-01-26 08:39:33 GMT 57.715485 -3.372030 10,000 123 279 0
2021-01-26 08:39:31 GMT 57.717793 -3.378384 10,000 123 279 -64
2021-01-26 08:39:27 GMT 57.720726 -3.386624 10,000 123 279 0
2021-01-26 08:39:24 GMT 57.722580 -3.391857 10,000 123 279 0
2021-01-26 08:39:21 GMT 57.724548 -3.397264 10,000 123 279 64
2021-01-26 08:39:17 GMT 57.727982 -3.406914 10,000 123 280 0
2021-01-26 08:39:14 GMT 57.729813 -3.411875 10,000 123 280 0
2021-01-26 08:39:12 GMT 57.731827 -3.417545 10,000 123 280 -64
2021-01-26 08:39:07 GMT 57.735397 -3.427557 10,000 123 280 0
2021-01-26 08:39:03 GMT 57.738136 -3.435150 10,000 123 279 0
2021-01-26 08:39:00 GMT 57.740231 -3.441010 10,000 123 279 0
2021-01-26 08:38:57 GMT 57.742355 -3.447049 10,000 123 279 0
2021-01-26 08:38:54 GMT 57.744232 -3.452271 10,000 123 279 0
2021-01-26 08:38:51 GMT 57.746422 -3.458496 10,000 123 279 0
2021-01-26 08:38:46 GMT 57.749451 -3.466984 10,000 123 279 0
2021-01-26 08:38:44 GMT 57.751308 -3.472137 10,000 123 279 0
2021-01-26 08:38:41 GMT 57.753777 -3.479187 10,000 123 279 0
2021-01-26 08:38:37 GMT 57.756546 -3.486830 10,000 123 279 0
2021-01-26 08:38:34 GMT 57.758148 -3.491437 10,000 123 279 0
2021-01-26 08:38:31 GMT 57.761040 -3.499512 10,000 123 279 0
2021-01-26 08:38:28 GMT 57.763046 -3.505082 10,000 123 279 0
2021-01-26 08:38:24 GMT 57.765518 -3.512081 10,000 123 279 0
2021-01-26 08:38:19 GMT 57.769604 -3.523590 10,000 123 279 0
2021-01-26 08:38:16 GMT 57.771095 -3.527802 10,000 123 279 0
2021-01-26 08:38:14 GMT 57.772537 -3.531738 10,000 123 279 0
2021-01-26 08:38:11 GMT 57.775452 -3.539990 10,000 123 279 0
2021-01-26 08:38:06 GMT 57.778107 -3.547432 10,000 123 278 0
2021-01-26 08:38:04 GMT 57.779892 -3.552429 10,000 123 278 0
2021-01-26 08:38:00 GMT 57.783096 -3.561431 10,000 123 278 0
2021-01-26 08:37:56 GMT 57.785385 -3.567810 10,000 123 278 0
2021-01-26 08:37:54 GMT 57.786877 -3.572021 10,000 123 278 0
2021-01-26 08:37:50 GMT 57.789806 -3.580261 10,000 123 279 0
2021-01-26 08:37:46 GMT 57.792557 -3.588043 10,000 123 279 0
2021-01-26 08:37:44 GMT 57.793991 -3.592086 10,000 123 279 0
2021-01-26 08:37:40 GMT 57.797653 -3.602275 10,000 123 279 0
2021-01-26 08:37:36 GMT 57.799576 -3.607768 10,000 123 278 0
2021-01-26 08:37:34 GMT 57.801121 -3.612122 10,000 123 278 0
2021-01-26 08:37:29 GMT 57.804985 -3.623016 10,000 123 279 0
2021-01-26 08:37:26 GMT 57.806847 -3.628235 10,000 123 279 0
2021-01-26 08:37:24 GMT 57.808197 -3.632080 10,000 123 279 0
2021-01-26 08:37:20 GMT 57.811890 -3.642499 10,000 123 279 0
2021-01-26 08:37:16 GMT 57.813812 -3.647904 10,000 123 279 0
2021-01-26 08:37:14 GMT 57.815411 -3.652405 10,000 123 279 0
2021-01-26 08:37:10 GMT 57.818344 -3.660645 10,000 123 279 0
2021-01-26 08:37:06 GMT 57.821274 -3.668902 10,000 123 279 0
2021-01-26 08:37:04 GMT 57.822765 -3.673096 10,025 123 279 0
2021-01-26 08:37:00 GMT 57.825699 -3.681427 10,025 123 279 0
2021-01-26 08:36:57 GMT 57.828094 -3.688217 10,000 123 278 0
2021-01-26 08:36:54 GMT 57.829937 -3.693420 10,000 123 278 0
2021-01-26 08:36:49 GMT 57.833660 -3.703949 10,000 123 278 0
2021-01-26 08:36:46 GMT 57.835430 -3.708893 10,000 123 278 0
2021-01-26 08:36:44 GMT 57.836792 -3.712759 10,000 123 277 64
2021-01-26 08:36:39 GMT 57.840637 -3.723568 10,000 123 277 64
2021-01-26 08:36:36 GMT 57.842514 -3.728972 10,000 123 276 0
2021-01-26 08:36:34 GMT 57.844025 -3.733137 10,000 123 276 0
2021-01-26 08:36:30 GMT 57.847092 -3.741731 10,000 123 276 0
2021-01-26 08:36:26 GMT 57.849564 -3.748641 10,000 123 276 0
2021-01-26 08:36:24 GMT 57.851349 -3.753603 10,000 123 276 0
2021-01-26 08:36:20 GMT 57.854050 -3.761261 10,000 123 276 0
2021-01-26 08:36:16 GMT 57.856705 -3.768585 10,000 123 276 0
2021-01-26 08:36:14 GMT 57.858475 -3.773621 10,000 123 277 0
2021-01-26 08:36:06 GMT 57.864105 -3.789368 10,000 123 277 0
2021-01-26 08:36:04 GMT 57.865448 -3.793207 10,000 123 278 0
2021-01-26 08:36:00 GMT 57.868622 -3.802277 10,000 123 278 0
2021-01-26 08:35:54 GMT 57.872543 -3.813319 10,000 123 279 0
2021-01-26 08:35:50 GMT 57.875790 -3.822601 10,000 123 279 0
2021-01-26 08:35:44 GMT 57.879456 -3.833165 10,000 123 280 0
2021-01-26 08:35:41 GMT 57.881790 -3.839899 10,000 123 280 0
2021-01-26 08:35:36 GMT 57.885239 -3.849884 10,000 122 281 0
2021-01-26 08:35:34 GMT 57.886871 -3.854606 10,000 122 281 0
2021-01-26 08:35:31 GMT 57.889664 -3.862610 9,975 123 282 64
2021-01-26 08:35:26 GMT 57.892181 -3.869934 9,975 122 283 64
2021-01-26 08:35:24 GMT 57.893715 -3.874329 9,975 122 285 0
2021-01-26 08:35:20 GMT 57.896690 -3.883026 9,975 122 288 0
2021-01-26 08:35:16 GMT 57.899487 -3.891266 9,975 122 290 0
2021-01-26 08:35:14 GMT 57.900925 -3.895539 9,950 122 292 0
2021-01-26 08:35:09 GMT 57.904560 -3.906006 9,950 123 297 0
2021-01-26 08:35:06 GMT 57.907013 -3.913082 9,950 123 299 -64
2021-01-26 08:35:04 GMT 57.908379 -3.916992 9,950 123 302 -64
2021-01-26 08:35:00 GMT 57.911358 -3.925598 9,950 123 308 0
2021-01-26 08:34:56 GMT 57.914520 -3.934570 9,950 123 313 -64
2021-01-26 08:34:54 GMT 57.916351 -3.939839 9,950 123 317 -64
2021-01-26 08:34:49 GMT 57.921066 -3.953218 9,950 123 326 64
2021-01-26 08:34:46 GMT 57.922806 -3.958091 9,950 123 329 0
2021-01-26 08:34:44 GMT 57.924393 -3.962677 9,950 123 332 0
2021-01-26 08:34:40 GMT 57.927612 -3.971735 9,975 123 336 -128
2021-01-26 08:34:36 GMT 57.931412 -3.982544 10,000 123 343 -192
2021-01-26 08:34:34 GMT 57.933048 -3.987213 10,000 123 345 -192
2021-01-26 08:34:29 GMT 57.938095 -4.001504 10,000 123 347 0
2021-01-26 08:34:26 GMT 57.940125 -4.007355 10,000 123 347 0
2021-01-26 08:34:24 GMT 57.941895 -4.012402 10,000 123 347 0
2021-01-26 08:34:19 GMT 57.945969 -4.024008 10,000 123 348 0
2021-01-26 08:34:16 GMT 57.949219 -4.033311 10,000 123 348 0
2021-01-26 08:34:14 GMT 57.950638 -4.037387 10,000 123 348 0
2021-01-26 08:34:09 GMT 57.955303 -4.050751 10,000 123 348 0
2021-01-26 08:34:06 GMT 57.957779 -4.057853 10,000 123 348 0
2021-01-26 08:34:04 GMT 57.959633 -4.063202 10,000 123 348 0
2021-01-26 08:33:59 GMT 57.964191 -4.076294 10,000 123 348 0
2021-01-26 08:33:55 GMT 57.967209 -4.084965 10,000 123 348 0
2021-01-26 08:33:53 GMT 57.968674 -4.089218 10,000 123 348 0
2021-01-26 08:33:49 GMT 57.972290 -4.099672 10,000 123 348 0
2021-01-26 08:33:46 GMT 57.975357 -4.108532 10,000 123 348 0
2021-01-26 08:33:44 GMT 57.977417 -4.114380 10,000 123 348 0
2021-01-26 08:33:39 GMT 57.982864 -4.130151 10,000 123 348 0
2021-01-26 08:33:36 GMT 57.984348 -4.134430 10,000 123 348 0
2021-01-26 08:33:34 GMT 57.986027 -4.139282 10,000 123 348 0
2021-01-26 08:33:29 GMT 57.990311 -4.151733 10,000 123 349 0
2021-01-26 08:33:26 GMT 57.993240 -4.160156 10,000 123 349 0
2021-01-26 08:33:24 GMT 57.994995 -4.165236 10,000 123 349 0
2021-01-26 08:33:19 GMT 57.998501 -4.175354 10,000 123 348 0
2021-01-26 08:33:16 GMT 58.001945 -4.185333 10,000 123 348 0
2021-01-26 08:33:14 GMT 58.003811 -4.190643 10,000 123 349 0
2021-01-26 08:33:09 GMT 58.008133 -4.203068 10,000 123 349 0
2021-01-26 08:33:06 GMT 58.010788 -4.210776 10,000 123 349 0
2021-01-26 08:33:04 GMT 58.012512 -4.215820 10,025 123 349 0
2021-01-26 08:32:59 GMT 58.017197 -4.229293 10,000 123 349 0
2021-01-26 08:32:56 GMT 58.019348 -4.235407 10,000 123 349 0
2021-01-26 08:32:54 GMT 58.021267 -4.240997 10,000 123 349 0
2021-01-26 08:32:49 GMT 58.025501 -4.253265 10,000 123 349 0
2021-01-26 08:32:44 GMT 58.030334 -4.267302 10,000 123 349 0
2021-01-26 08:32:42 GMT 58.032074 -4.272441 10,000 123 349 0
2021-01-26 08:32:39 GMT 58.033836 -4.277527 10,000 123 349 0
2021-01-26 08:32:37 GMT 58.035885 -4.283386 10,000 123 349 0
2021-01-26 08:32:34 GMT 58.039143 -4.292816 10,000 123 349 0
2021-01-26 08:32:29 GMT 58.043564 -4.305634 10,000 123 349 0
2021-01-26 08:32:24 GMT 58.047848 -4.318176 10,000 123 349 -64
2021-01-26 08:32:20 GMT 58.051208 -4.327816 10,025 123 349 0
2021-01-26 08:32:14 GMT 58.056839 -4.344207 10,000 123 349 64
2021-01-26 08:32:10 GMT 58.060184 -4.353882 10,000 123 349 0
2021-01-26 08:32:06 GMT 58.063721 -4.364136 10,000 123 349 0
2021-01-26 08:32:04 GMT 58.065536 -4.369458 10,000 123 349 0
2021-01-26 08:31:59 GMT 58.069866 -4.381989 10,025 123 349 0
2021-01-26 08:31:56 GMT 58.072613 -4.389954 10,000 123 349 0
2021-01-26 08:31:54 GMT 58.074280 -4.394797 10,025 123 349 0
2021-01-26 08:31:50 GMT 58.077530 -4.404189 10,000 122 349 64
2021-01-26 08:31:46 GMT 58.081192 -4.414998 10,000 122 350 0
2021-01-26 08:31:44 GMT 58.083321 -4.421082 10,000 122 350 0
2021-01-26 08:31:40 GMT 58.086391 -4.430054 10,000 122 349 0
2021-01-26 08:31:36 GMT 58.090210 -4.441312 10,000 122 350 0
2021-01-26 08:31:34 GMT 58.091980 -4.446442 10,000 122 350 0
2021-01-26 08:31:30 GMT 58.095291 -4.456196 10,000 122 350 64
2021-01-26 08:31:29 GMT 58.095978 -4.458234 10,000 122 350 0
2021-01-26 08:31:26 GMT 58.098869 -4.466675 10,000 122 350 0
2021-01-26 08:31:24 GMT 58.100639 -4.471802 10,000 122 350 0
2021-01-26 08:31:16 GMT 58.107479 -4.491760 10,000 122 349 0
2021-01-26 08:31:13 GMT 58.109997 -4.499268 10,000 122 350 0
2021-01-26 08:31:09 GMT 58.114372 -4.511993 10,000 122 350 0
2021-01-26 08:31:06 GMT 58.116558 -4.518402 10,000 122 350 0
2021-01-26 08:31:04 GMT 58.118282 -4.523529 10,000 122 350 0
2021-01-26 08:31:02 GMT 58.119095 -4.525836 10,000 122 350 0
2021-01-26 08:30:56 GMT 58.124939 -4.543030 10,000 122 349 0
2021-01-26 08:30:54 GMT 58.126801 -4.548431 10,000 122 349 0
2021-01-26 08:30:52 GMT 58.127747 -4.551264 10,000 122 349 0
2021-01-26 08:30:46 GMT 58.133926 -4.569515 10,000 122 349 0
2021-01-26 08:30:44 GMT 58.135880 -4.575165 10,000 122 350 0
2021-01-26 08:30:42 GMT 58.136761 -4.577728 10,000 122 350 0
2021-01-26 08:30:36 GMT 58.142761 -4.595475 10,000 122 350 0
2021-01-26 08:30:34 GMT 58.144592 -4.600879 10,000 122 350 0
2021-01-26 08:30:32 GMT 58.145828 -4.604512 10,000 122 350 0
2021-01-26 08:30:25 GMT 58.151413 -4.620903 10,000 122 350 0
2021-01-26 08:30:22 GMT 58.154591 -4.630188 10,000 122 350 -64
2021-01-26 08:30:18 GMT 58.157913 -4.639952 10,000 122 350 -64
2021-01-26 08:30:13 GMT 58.162125 -4.652356 10,000 122 350 0
2021-01-26 08:30:11 GMT 58.163864 -4.657494 10,000 122 350 0
2021-01-26 08:30:08 GMT 58.167255 -4.667542 10,000 122 350 0
2021-01-26 08:30:00 GMT 58.173660 -4.686289 10,000 122 350 0
2021-01-26 08:29:56 GMT 58.177048 -4.696301 10,000 122 349 0
2021-01-26 08:29:50 GMT 58.182312 -4.711806 10,000 122 349 0
2021-01-26 08:29:46 GMT 58.185783 -4.722107 10,000 122 350 0
2021-01-26 08:29:40 GMT 58.191101 -4.737765 10,000 122 350 0
2021-01-26 08:29:36 GMT 58.194672 -4.748309 10,000 122 349 0
2021-01-26 08:29:30 GMT 58.199795 -4.763489 10,000 122 348 0
2021-01-26 08:29:26 GMT 58.203472 -4.774292 10,000 122 348 0
2021-01-26 08:29:20 GMT 58.208313 -4.788710 10,000 122 348 0
2021-01-26 08:29:16 GMT 58.212223 -4.800293 10,000 122 348 0
2021-01-26 08:29:10 GMT 58.217018 -4.814484 10,000 122 349 0
2021-01-26 08:29:05 GMT 58.221348 -4.827301 10,000 122 348 -64
2021-01-26 08:29:03 GMT 58.224373 -4.836365 10,000 122 348 0
2021-01-26 08:28:59 GMT 58.226143 -4.841492 10,000 122 348 0
2021-01-26 08:28:56 GMT 58.229691 -4.852059 10,000 122 348 64
2021-01-26 08:28:52 GMT 58.233173 -4.862274 10,000 122 348 64
2021-01-26 08:28:49 GMT 58.235229 -4.868538 10,000 122 348 64
2021-01-26 08:28:46 GMT 58.238384 -4.877747 10,000 122 348 0
2021-01-26 08:28:39 GMT 58.243835 -4.893966 10,000 122 349 0
2021-01-26 08:28:35 GMT 58.247223 -4.904067 10,000 122 349 0
2021-01-26 08:28:29 GMT 58.252865 -4.920868 10,000 122 349 -64
2021-01-26 08:28:26 GMT 58.255783 -4.929583 10,000 122 349 0
2021-01-26 08:28:22 GMT 58.259056 -4.939453 10,000 122 349 0
2021-01-26 08:28:19 GMT 58.261570 -4.946869 10,000 122 349 0
2021-01-26 08:28:16 GMT 58.264084 -4.954376 10,000 122 349 0
2021-01-26 08:28:12 GMT 58.267685 -4.965200 10,000 122 349 0
2021-01-26 08:28:09 GMT 58.270203 -4.972731 10,000 122 349 0
2021-01-26 08:28:06 GMT 58.272972 -4.981018 10,000 122 349 0
2021-01-26 08:28:00 GMT 58.278763 -4.998336 10,000 122 349 0
2021-01-26 08:27:56 GMT 58.281727 -5.007111 10,000 122 349 0
2021-01-26 08:27:50 GMT 58.286568 -5.021576 10,000 122 349 0
2021-01-26 08:27:46 GMT 58.290291 -5.032745 10,000 122 349 0
2021-01-26 08:27:40 GMT 58.295380 -5.047952 10,000 122 349 0
2021-01-26 08:27:36 GMT 58.299042 -5.058838 10,000 122 349 0
2021-01-26 08:27:32 GMT 58.302673 -5.069733 10,000 122 349 0
2021-01-26 08:27:29 GMT 58.304722 -5.075958 10,000 122 349 0
2021-01-26 08:27:26 GMT 58.307693 -5.084721 10,000 122 349 64
2021-01-26 08:27:21 GMT 58.311813 -5.097213 10,000 122 349 0
2021-01-26 08:27:16 GMT 58.316391 -5.110946 10,000 122 349 -64
2021-01-26 08:27:12 GMT 58.320236 -5.122287 10,000 122 349 0
2021-01-26 08:27:06 GMT 58.325043 -5.136817 10,000 122 349 0
2021-01-26 08:27:01 GMT 58.328934 -5.148512 10,000 122 349 0
2021-01-26 08:26:56 GMT 58.333740 -5.163043 10,000 122 349 0
2021-01-26 08:26:55 GMT 58.334564 -5.165612 10,000 122 349 0
2021-01-26 08:26:51 GMT 58.337585 -5.174738 10,000 122 348 0
2021-01-26 08:26:45 GMT 58.342575 -5.189711 10,000 122 348 0
2021-01-26 08:26:40 GMT 58.346527 -5.201660 10,000 122 348 0
2021-01-26 08:26:35 GMT 58.351273 -5.215936 10,000 122 349 0
2021-01-26 08:26:31 GMT 58.355373 -5.228394 10,000 122 348 64
2021-01-26 08:26:25 GMT 58.359329 -5.240295 10,000 122 348 0
2021-01-26 08:26:21 GMT 58.363724 -5.253503 10,000 122 348 -64
2021-01-26 08:26:15 GMT 58.368439 -5.267767 10,025 122 348 64
2021-01-26 08:26:10 GMT 58.372787 -5.281057 10,000 122 348 0
2021-01-26 08:26:05 GMT 58.377159 -5.294220 10,000 122 348 0
2021-01-26 08:26:00 GMT 58.382000 -5.308777 10,000 122 348 64
2021-01-26 08:25:56 GMT 58.385490 -5.319397 10,000 122 348 0
2021-01-26 08:25:50 GMT 58.389862 -5.332622 10,000 122 348 0
2021-01-26 08:25:45 GMT 58.394104 -5.345673 10,000 122 349 0
2021-01-26 08:25:41 GMT 58.397129 -5.354736 10,000 122 349 0
2021-01-26 08:25:35 GMT 58.403000 -5.372669 10,000 122 349 0
2021-01-26 08:25:30 GMT 58.407028 -5.384896 10,000 122 349 -64
2021-01-26 08:25:24 GMT 58.411884 -5.399689 10,000 122 349 0
2021-01-26 08:25:21 GMT 58.414028 -5.406189 10,000 122 348 0
2021-01-26 08:25:14 GMT 58.420349 -5.425474 10,000 122 348 0
2021-01-26 08:25:11 GMT 58.422821 -5.433005 10,000 122 348 0
2021-01-26 08:25:03 GMT 58.429577 -5.453522 10,000 122 348 0
2021-01-26 08:24:59 GMT 58.433990 -5.467027 10,000 122 348 0
2021-01-26 08:24:54 GMT 58.437744 -5.478457 10,000 122 348 0
2021-01-26 08:24:51 GMT 58.440144 -5.485748 10,000 122 348 0
2021-01-26 08:24:43 GMT 58.447037 -5.506808 10,000 122 348 64
2021-01-26 08:24:40 GMT 58.449593 -5.514587 10,000 122 348 64
2021-01-26 08:24:34 GMT 58.454529 -5.529694 10,000 122 348 0
2021-01-26 08:24:31 GMT 58.457367 -5.538300 10,000 122 348 0
2021-01-26 08:24:23 GMT 58.464165 -5.559082 10,000 121 348 0
2021-01-26 08:24:20 GMT 58.466034 -5.564841 10,000 121 348 0
2021-01-26 08:24:14 GMT 58.472076 -5.583344 10,000 122 349 0
2021-01-26 08:24:11 GMT 58.474407 -5.590393 10,000 122 349 0
2021-01-26 08:24:05 GMT 58.479767 -5.606837 10,000 122 349 -64
2021-01-26 08:24:01 GMT 58.482971 -5.616760 10,000 122 349 0
2021-01-26 08:23:54 GMT 58.488976 -5.634979 10,000 122 349 0
2021-01-26 08:23:50 GMT 58.491772 -5.643677 10,000 122 349 0
2021-01-26 08:23:44 GMT 58.498379 -5.663727 10,000 122 349 0
2021-01-26 08:23:40 GMT 58.500523 -5.670319 10,000 122 349 0
2021-01-26 08:23:33 GMT 58.506805 -5.689636 10,000 121 349 0
2021-01-26 08:23:29 GMT 58.509521 -5.698006 10,000 121 349 0
2021-01-26 08:23:24 GMT 58.514721 -5.713989 10,000 121 349 0
2021-01-26 08:23:20 GMT 58.517441 -5.722371 10,000 121 349 64
2021-01-26 08:23:13 GMT 58.523346 -5.740711 10,000 121 349 -64
2021-01-26 08:23:04 GMT 58.531219 -5.765076 10,000 121 349 0
2021-01-26 08:22:54 GMT 58.539719 -5.791260 10,000 121 349 0
2021-01-26 08:22:47 GMT 58.545227 -5.808312 10,000 121 348 -64
2021-01-26 08:22:44 GMT 58.548203 -5.817438 10,025 121 348 -64
2021-01-26 08:22:40 GMT 58.551727 -5.828430 10,025 121 348 0
2021-01-26 08:22:34 GMT 58.556709 -5.843903 10,000 121 348 0
2021-01-26 08:22:29 GMT 58.560619 -5.855896 10,000 121 348 0
2021-01-26 08:22:24 GMT 58.565002 -5.869534 10,000 121 348 0
2021-01-26 08:22:19 GMT 58.568893 -5.881495 10,000 121 348 0
2021-01-26 08:22:14 GMT 58.573700 -5.896380 10,000 121 348 0
2021-01-26 08:22:09 GMT 58.577408 -5.907898 10,000 121 348 0
2021-01-26 08:22:04 GMT 58.582127 -5.922546 10,000 121 347 64
2021-01-26 08:22:00 GMT 58.585602 -5.933326 10,000 121 347 0
2021-01-26 08:21:53 GMT 58.590694 -5.949280 10,025 121 347 -64
2021-01-26 08:21:49 GMT 58.594322 -5.960449 10,025 121 347 64
2021-01-26 08:21:43 GMT 58.599354 -5.976196 10,000 121 347 0
2021-01-26 08:21:39 GMT 58.602722 -5.986663 10,000 121 347 0
2021-01-26 08:21:33 GMT 58.607620 -6.001813 10,000 121 347 0
2021-01-26 08:21:29 GMT 58.611317 -6.013367 10,000 121 347 0
2021-01-26 08:21:23 GMT 58.616089 -6.028216 10,000 121 347 0
2021-01-26 08:21:19 GMT 58.619789 -6.039734 10,000 121 347 64
2021-01-26 08:21:13 GMT 58.624863 -6.055481 10,000 121 347 0
2021-01-26 08:21:09 GMT 58.628120 -6.065643 10,025 121 347 0
2021-01-26 08:21:03 GMT 58.633392 -6.082173 10,000 121 346 0
2021-01-26 08:20:59 GMT 58.636642 -6.092451 10,000 121 346 64
2021-01-26 08:20:53 GMT 58.641495 -6.107690 10,000 121 346 0
2021-01-26 08:20:43 GMT 58.649860 -6.133942 10,000 121 347 0
2021-01-26 08:20:33 GMT 58.658386 -6.160672 10,000 121 347 0
2021-01-26 08:20:23 GMT 58.666714 -6.187042 10,000 121 347 64
2021-01-26 08:20:12 GMT 58.675415 -6.214452 10,000 121 348 0
2021-01-26 08:20:02 GMT 58.683884 -6.241120 10,000 121 349 0
2021-01-26 08:19:56 GMT 58.689339 -6.258362 10,025 121 349 0
2021-01-26 08:19:52 GMT 58.692085 -6.267059 10,000 121 349 0
2021-01-26 08:19:42 GMT 58.701324 -6.296141 10,000 121 349 0
2021-01-26 08:19:35 GMT 58.706543 -6.312532 10,025 121 350 0
2021-01-26 08:19:32 GMT 58.709354 -6.321533 10,025 121 350 0
2021-01-26 08:19:26 GMT 58.714005 -6.336099 10,000 121 350 0
2021-01-26 08:19:22 GMT 58.717575 -6.347528 10,000 121 349 0
2021-01-26 08:19:17 GMT 58.722107 -6.361793 10,000 121 349 0
2021-01-26 08:19:12 GMT 58.726158 -6.374542 10,000 121 349 -64
2021-01-26 08:19:06 GMT 58.731190 -6.390381 10,025 121 348 0
2021-01-26 08:19:02 GMT 58.734650 -6.401485 10,025 121 348 0
2021-01-26 08:18:56 GMT 58.739426 -6.416656 10,000 121 348 64
2021-01-26 08:18:51 GMT 58.743073 -6.428331 10,000 121 349 64
2021-01-26 08:18:46 GMT 58.747665 -6.442932 10,000 121 349 -64
2021-01-26 08:18:41 GMT 58.751495 -6.455088 10,025 121 349 -64
2021-01-26 08:18:36 GMT 58.756371 -6.470764 10,025 121 348 0
2021-01-26 08:18:31 GMT 58.759769 -6.481659 10,000 121 348 0
2021-01-26 08:18:26 GMT 58.764565 -6.496948 10,025 120 347 0
2021-01-26 08:18:21 GMT 58.768204 -6.508602 10,000 120 347 64
2021-01-26 08:18:15 GMT 58.773087 -6.524231 10,000 120 347 0
2021-01-26 08:18:11 GMT 58.776299 -6.534576 10,000 120 347 -64
2021-01-26 08:18:05 GMT 58.781883 -6.552612 10,025 120 347 0
2021-01-26 08:18:01 GMT 58.784500 -6.561141 10,025 120 347 0
2021-01-26 08:17:55 GMT 58.789845 -6.578339 10,000 120 347 64
2021-01-26 08:17:51 GMT 58.792877 -6.588164 10,000 120 347 0
2021-01-26 08:17:45 GMT 58.798267 -6.605713 10,000 120 347 0
2021-01-26 08:17:41 GMT 58.801254 -6.615276 10,000 120 347 0
2021-01-26 08:17:34 GMT 58.806747 -6.633084 10,000 120 347 0
2021-01-26 08:17:31 GMT 58.809769 -6.642919 10,000 120 347 0
2021-01-26 08:17:21 GMT 58.817734 -6.668701 10,000 120 347 0
2021-01-26 08:17:14 GMT 58.823639 -6.687839 10,000 120 347 0
2021-01-26 08:17:11 GMT 58.826107 -6.695801 10,000 120 347 0
2021-01-26 08:17:04 GMT 58.831833 -6.714478 10,000 120 347 0
2021-01-26 08:17:01 GMT 58.834305 -6.722481 10,000 120 348 0
2021-01-26 08:16:54 GMT 58.840305 -6.741852 10,000 120 347 0
2021-01-26 08:16:51 GMT 58.842636 -6.749327 10,000 120 347 0
2021-01-26 08:16:43 GMT 58.848999 -6.769775 10,000 121 348 64
2021-01-26 08:16:40 GMT 58.851059 -6.776386 10,000 121 348 64
2021-01-26 08:16:33 GMT 58.857624 -6.797317 10,000 120 347 -64
2021-01-26 08:16:30 GMT 58.859619 -6.803741 10,000 121 348 -64
2021-01-26 08:16:20 GMT 58.868225 -6.830200 10,000 124 347 0
2021-01-26 08:16:10 GMT 58.877563 -6.855011 10,000 129 347 0
2021-01-26 08:16:00 GMT 58.887978 -6.878483 10,025 133 347 0
2021-01-26 08:15:50 GMT 58.899261 -6.900421 10,000 136 346 0
2021-01-26 08:15:40 GMT 58.911064 -6.922239 10,000 136 346 0
2021-01-26 08:15:30 GMT 58.922935 -6.944212 10,025 136 345 0
2021-01-26 08:15:20 GMT 58.934464 -6.965607 10,000 136 346 64
2021-01-26 08:15:10 GMT 58.945908 -6.986847 10,000 136 347 -64
2021-01-26 08:15:00 GMT 58.957523 -7.008614 10,000 136 347 0
2021-01-26 08:14:49 GMT 58.969482 -7.030975 10,000 136 347 0
2021-01-26 08:14:39 GMT 58.981110 -7.052765 10,025 136 347 0
2021-01-26 08:14:29 GMT 58.992905 -7.074816 10,000 136 347 0
2021-01-26 08:14:19 GMT 59.004311 -7.096221 10,000 135 347 0
2021-01-26 08:14:09 GMT 59.015717 -7.117625 10,000 135 347 0
2021-01-26 08:13:59 GMT 59.027401 -7.139598 10,000 136 348 0
2021-01-26 08:13:49 GMT 59.039200 -7.161713 10,000 136 348 0
2021-01-26 08:13:39 GMT 59.050781 -7.183411 10,000 135 349 0
2021-01-26 08:13:28 GMT 59.063095 -7.206482 10,000 136 350 -64
2021-01-26 08:13:18 GMT 59.074928 -7.228625 10,000 136 349 0
2021-01-26 08:13:08 GMT 59.086891 -7.250977 10,000 136 349 0
2021-01-26 08:12:58 GMT 59.098434 -7.272583 10,000 136 350 0
2021-01-26 08:12:50 GMT 59.107239 -7.289145 10,000 136 350 0
2021-01-26 08:12:47 GMT 59.110588 -7.295490 10,000 136 350 -64
2021-01-26 08:12:38 GMT 59.121250 -7.315569 10,000 135 350 0
2021-01-26 08:12:30 GMT 59.130753 -7.333557 10,025 135 349 64
2021-01-26 08:12:27 GMT 59.133770 -7.339246 10,025 135 349 64
2021-01-26 08:12:18 GMT 59.144760 -7.360016 10,000 135 348 0
2021-01-26 08:12:08 GMT 59.156387 -7.382080 10,025 135 348 0
2021-01-26 08:11:58 GMT 59.167942 -7.403933 10,025 135 347 0
2021-01-26 08:11:48 GMT 59.179298 -7.425621 10,000 135 348 64
2021-01-26 08:11:38 GMT 59.190937 -7.447783 10,000 135 349 0
2021-01-26 08:11:28 GMT 59.202576 -7.469945 10,025 135 348 0
2021-01-26 08:11:17 GMT 59.214340 -7.492218 10,000 135 348 64
2021-01-26 08:11:07 GMT 59.226334 -7.515015 10,000 135 348 0
2021-01-26 08:10:57 GMT 59.237732 -7.536713 10,000 135 348 0
2021-01-26 08:10:47 GMT 59.249359 -7.558777 10,000 135 347 0
2021-01-26 08:10:37 GMT 59.260860 -7.580661 10,000 135 347 0
2021-01-26 08:10:27 GMT 59.272385 -7.602448 10,000 135 347 0
2021-01-26 08:10:17 GMT 59.283951 -7.624512 10,000 135 347 0
2021-01-26 08:10:07 GMT 59.295685 -7.646759 10,000 136 347 0
2021-01-26 08:09:57 GMT 59.307457 -7.668931 10,000 136 346 0
2021-01-26 08:09:46 GMT 59.319214 -7.691071 10,000 135 346 -64
2021-01-26 08:09:36 GMT 59.330795 -7.713043 10,000 136 347 0
2021-01-26 08:09:26 GMT 59.342140 -7.734375 10,000 136 347 0
2021-01-26 08:09:16 GMT 59.354095 -7.756989 10,000 135 347 0
2021-01-26 08:09:06 GMT 59.365414 -7.778510 10,000 135 347 0
2021-01-26 08:08:56 GMT 59.376961 -7.800388 10,000 136 348 0
2021-01-26 08:08:46 GMT 59.388977 -7.823181 10,000 136 348 -64
2021-01-26 08:08:36 GMT 59.400562 -7.845091 10,000 136 348 64
2021-01-26 08:08:26 GMT 59.412060 -7.866779 10,000 136 348 0
2021-01-26 08:08:16 GMT 59.423977 -7.889415 10,000 136 349 0
2021-01-26 08:08:06 GMT 59.435577 -7.911255 10,000 136 348 0
2021-01-26 08:07:55 GMT 59.447433 -7.933594 10,000 136 349 64
2021-01-26 08:07:45 GMT 59.459312 -7.955996 10,000 136 349 0
2021-01-26 08:07:35 GMT 59.470963 -7.977905 10,000 136 349 -64
2021-01-26 08:07:25 GMT 59.482868 -8.000225 10,000 136 349 64
2021-01-26 08:07:15 GMT 59.494263 -8.021759 10,000 136 349 0
2021-01-26 08:07:05 GMT 59.506210 -8.044373 10,000 136 349 0
2021-01-26 08:06:55 GMT 59.518108 -8.066806 10,000 136 349 0
2021-01-26 08:06:45 GMT 59.529419 -8.088021 10,025 136 348 0
2021-01-26 08:06:35 GMT 59.541458 -8.110931 10,000 136 349 0
2021-01-26 08:06:25 GMT 59.552948 -8.132629 10,025 136 347 -64
2021-01-26 08:06:15 GMT 59.565033 -8.155426 10,025 136 347 64
2021-01-26 08:06:04 GMT 59.576809 -8.177806 10,000 136 347 -64
2021-01-26 08:05:54 GMT 59.588333 -8.199738 10,000 135 346 64
2021-01-26 08:05:44 GMT 59.599915 -8.221893 10,000 135 345 0
2021-01-26 08:05:34 GMT 59.611027 -8.243156 10,025 135 345 -64
2021-01-26 08:05:24 GMT 59.622616 -8.265318 10,000 136 345 64
2021-01-26 08:05:14 GMT 59.634064 -8.287170 10,000 135 345 0
2021-01-26 08:05:04 GMT 59.646103 -8.310242 10,000 135 345 64
2021-01-26 08:04:54 GMT 59.657547 -8.332214 10,000 135 346 0
2021-01-26 08:04:44 GMT 59.668900 -8.354004 10,025 135 346 64
2021-01-26 08:04:34 GMT 59.680481 -8.376251 10,025 135 346 64
2021-01-26 08:04:24 GMT 59.692211 -8.398764 10,025 135 347 0
2021-01-26 08:04:13 GMT 59.704037 -8.421399 10,025 135 347 0
2021-01-26 08:04:04 GMT 59.715160 -8.442898 10,025 135 346 -64
2021-01-26 08:03:53 GMT 59.726986 -8.465629 10,025 135 345 -64
2021-01-26 08:03:43 GMT 59.738300 -8.487317 10,025 136 344 -64
2021-01-26 08:03:33 GMT 59.749844 -8.509385 10,025 135 345 -256
2021-01-26 08:03:23 GMT 59.761734 -8.532257 10,175 135 347 -1472
2021-01-26 08:03:13 GMT 59.773445 -8.554940 10,525 135 350 -2496
2021-01-26 08:03:03 GMT 59.785034 -8.577484 10,950 135 352 -2496
2021-01-26 08:02:52 GMT 59.796814 -8.600874 11,375 134 356 -2560
2021-01-26 08:02:42 GMT 59.808544 -8.624362 11,800 134 359 -2560
2021-01-26 08:02:33 GMT 59.819904 -8.647093 12,225 135 362 -2688
2021-01-26 08:02:23 GMT 59.831867 -8.670865 12,675 135 365 -2688
2021-01-26 08:02:12 GMT 59.844624 -8.695868 13,150 135 367 -2880
2021-01-26 08:02:02 GMT 59.856766 -8.719482 13,625 135 369 -2944
2021-01-26 08:01:52 GMT 59.869080 -8.743378 14,150 135 369 -3072
2021-01-26 08:01:42 GMT 59.881306 -8.767185 14,650 135 370 -3072
2021-01-26 08:01:32 GMT 59.893829 -8.791809 15,175 135 371 -3008
2021-01-26 08:01:22 GMT 59.905655 -8.815521 15,650 134 372 -2816
2021-01-26 08:01:12 GMT 59.917557 -8.839874 16,100 134 375 -2624
2021-01-26 08:01:01 GMT 59.930328 -8.866346 16,525 133 380 -2176
2021-01-26 08:00:52 GMT 59.942150 -8.890970 16,850 133 386 -1920
2021-01-26 08:00:41 GMT 59.955093 -8.917858 17,150 133 394 -1600
2021-01-26 08:00:31 GMT 59.967499 -8.943913 17,425 133 402 -1920
2021-01-26 08:00:21 GMT 59.980743 -8.972299 17,800 132 409 -2176
2021-01-26 08:00:11 GMT 59.993317 -8.999697 18,150 132 415 -2240
2021-01-26 08:00:01 GMT 60.006317 -9.028583 18,575 131 420 -2944
2021-01-26 07:59:51 GMT 60.019753 -9.058816 19,100 131 422 -2944
2021-01-26 07:59:41 GMT 60.032600 -9.087655 19,575 131 424 -2944
2021-01-26 07:59:31 GMT 60.045776 -9.116853 20,075 131 427 -3072
2021-01-26 07:59:21 GMT 60.059181 -9.146903 20,600 131 429 -3008
2021-01-26 07:59:10 GMT 60.072693 -9.177183 21,100 131 432 -2944
2021-01-26 07:59:01 GMT 60.085670 -9.206641 21,575 131 436 -2816
2021-01-26 07:58:51 GMT 60.098969 -9.236945 22,050 131 439 -2816
2021-01-26 07:58:40 GMT 60.112812 -9.268439 22,500 131 443 -2624
2021-01-26 07:58:30 GMT 60.126801 -9.300306 22,950 131 449 -2560
2021-01-26 07:58:20 GMT 60.140305 -9.330992 23,350 131 454 -2368
2021-01-26 07:58:10 GMT 60.154289 -9.362510 23,800 131 459 -2688
2021-01-26 07:58:00 GMT 60.168961 -9.395773 24,200 131 466 -2112
2021-01-26 07:57:50 GMT 60.183151 -9.428164 24,500 131 476 -1728
2021-01-26 07:57:40 GMT 60.197983 -9.460365 24,900 137 479 -3520
2021-01-26 07:57:30 GMT 60.215744 -9.488589 25,575 147 473 -4160
2021-01-26 07:57:22 GMT 60.229519 -9.504253 26,100 155 464 -4672
2021-01-26 07:57:19 GMT 60.235336 -9.509519 26,325 158 460 -4544
2021-01-26 07:57:10 GMT 60.254936 -9.522204 27,025 168 445 -4416
2021-01-26 07:56:59 GMT 60.275791 -9.527501 27,825 179 429 -4416
2021-01-26 07:56:49 GMT 60.294846 -9.525146 28,525 191 412 -4160
2021-01-26 07:56:39 GMT 60.314243 -9.514356 29,300 202 395 -4224
2021-01-26 07:56:29 GMT 60.329418 -9.498858 29,925 214 379 -4096
2021-01-26 07:56:22 GMT 60.339203 -9.483948 30,425 223 368 -4032
2021-01-26 07:56:19 GMT 60.342873 -9.476885 30,625 227 364 -3584
2021-01-26 07:56:12 GMT 60.350510 -9.458755 31,000 237 355 -2944
2021-01-26 07:56:09 GMT 60.353348 -9.450326 31,150 239 353 -2816
2021-01-26 07:56:02 GMT 60.358376 -9.430880 31,450 250 348 -2432
2021-01-26 07:55:59 GMT 60.360397 -9.419924 31,575 253 347 -2432
2021-01-26 07:55:49 GMT 60.363510 -9.388670 31,975 266 345 -2112
2021-01-26 07:55:42 GMT 60.363510 -9.367076 32,200 277 347 -1984
2021-01-26 07:55:38 GMT 60.362797 -9.355545 32,300 281 349 -1920
2021-01-26 07:55:32 GMT 60.360146 -9.334063 32,525 291 352 -1856
2021-01-26 07:55:29 GMT 60.358429 -9.324835 32,625 293 354 -1856
2021-01-26 07:55:21 GMT 60.352890 -9.303620 32,825 304 362 -1792
2021-01-26 07:55:18 GMT 60.350189 -9.295570 32,925 308 365 -1792
2021-01-26 07:55:12 GMT 60.342781 -9.278150 33,125 316 372 -2048
2021-01-26 07:55:08 GMT 60.337845 -9.268930 33,275 320 376 -2112
2021-01-26 07:55:01 GMT 60.328537 -9.254561 33,525 328 383 -2368
2021-01-26 07:54:58 GMT 60.323547 -9.248405 33,650 331 386 -2048
2021-01-26 07:54:48 GMT 60.307663 -9.234103 33,950 342 394 -1088
2021-01-26 07:54:38 GMT 60.289124 -9.222928 34,000 344 397 0
2021-01-26 07:54:28 GMT 60.272049 -9.212889 34,025 344 397 0
2021-01-26 07:54:17 GMT 60.252331 -9.201442 34,000 344 397 0
2021-01-26 07:54:07 GMT 60.236115 -9.192052 34,000 344 396 64
2021-01-26 07:53:58 GMT 60.219276 -9.182216 34,000 344 395 0
2021-01-26 07:53:48 GMT 60.201736 -9.171879 34,000 344 395 0
2021-01-26 07:53:37 GMT 60.183384 -9.161126 34,000 344 395 0
2021-01-26 07:53:27 GMT 60.165695 -9.150728 34,000 344 395 0
2021-01-26 07:53:18 GMT 60.148705 -9.140919 34,000 344 395 0
2021-01-26 07:53:11 GMT 60.136642 -9.133901 34,000 344 394 0
2021-01-26 07:53:07 GMT 60.131062 -9.130620 34,000 344 394 0
2021-01-26 07:53:01 GMT 60.119144 -9.123655 34,000 344 395 0
2021-01-26 07:52:57 GMT 60.113205 -9.120262 34,000 344 395 0
2021-01-26 07:52:50 GMT 60.101315 -9.113355 34,000 344 394 -64
2021-01-26 07:52:47 GMT 60.095539 -9.110020 34,000 344 394 -64
2021-01-26 07:52:40 GMT 60.083130 -9.102836 34,025 344 394 0
2021-01-26 07:52:37 GMT 60.077850 -9.099819 34,025 344 394 0
2021-01-26 07:52:30 GMT 60.065826 -9.092891 34,025 344 393 0
2021-01-26 07:52:27 GMT 60.059738 -9.089292 34,025 344 393 0
2021-01-26 07:52:20 GMT 60.048615 -9.082757 34,000 344 393 0
2021-01-26 07:52:16 GMT 60.041821 -9.078827 34,000 344 393 0
2021-01-26 07:52:10 GMT 60.031204 -9.072647 34,025 344 391 -64
2021-01-26 07:52:07 GMT 60.024994 -9.069024 34,025 344 391 0
2021-01-26 07:51:57 GMT 60.007603 -9.059012 34,000 345 390 0
2021-01-26 07:51:50 GMT 59.996017 -9.052450 34,000 345 390 0
2021-01-26 07:51:47 GMT 59.990471 -9.049399 34,000 345 389 0
2021-01-26 07:51:39 GMT 59.977856 -9.042140 34,000 344 389 64
2021-01-26 07:51:35 GMT 59.969757 -9.037432 34,000 344 389 64
2021-01-26 07:51:30 GMT 59.960773 -9.032233 34,000 344 389 0
2021-01-26 07:51:27 GMT 59.955597 -9.029246 34,000 344 389 -64
2021-01-26 07:51:20 GMT 59.943558 -9.022339 34,000 345 389 0
2021-01-26 07:51:16 GMT 59.938202 -9.019318 34,000 345 389 0
2021-01-26 07:51:06 GMT 59.920441 -9.009155 34,000 344 389 0
2021-01-26 07:50:56 GMT 59.902863 -8.999034 34,000 345 389 -64
2021-01-26 07:50:46 GMT 59.885822 -8.989468 34,000 345 388 0
2021-01-26 07:50:36 GMT 59.868576 -8.979767 34,000 345 387 0
2021-01-26 07:50:26 GMT 59.850357 -8.969421 34,025 344 388 0
2021-01-26 07:50:16 GMT 59.833511 -8.959808 34,000 344 387 0
2021-01-26 07:50:09 GMT 59.822205 -8.953308 34,025 344 386 0
2021-01-26 07:50:05 GMT 59.815903 -8.949690 34,025 344 386 -64
2021-01-26 07:49:56 GMT 59.799316 -8.940216 34,025 344 385 64
2021-01-26 07:49:46 GMT 59.782104 -8.930275 34,025 344 384 0
2021-01-26 07:49:35 GMT 59.764069 -8.919983 34,000 344 383 64
2021-01-26 07:49:25 GMT 59.747749 -8.910764 34,000 345 382 -128
2021-01-26 07:49:15 GMT 59.730469 -8.900940 34,025 345 381 64
2021-01-26 07:49:09 GMT 59.719494 -8.894759 34,000 345 381 0
2021-01-26 07:49:05 GMT 59.713760 -8.891602 34,000 345 380 -64
2021-01-26 07:48:58 GMT 59.702267 -8.885098 34,025 345 380 -64
2021-01-26 07:48:55 GMT 59.696030 -8.881594 34,025 344 380 0
2021-01-26 07:48:49 GMT 59.685928 -8.875817 34,000 344 379 64
2021-01-26 07:48:45 GMT 59.679153 -8.872009 34,000 344 379 0
2021-01-26 07:48:39 GMT 59.668888 -8.866251 34,000 344 379 0
2021-01-26 07:48:35 GMT 59.662327 -8.862463 34,000 345 379 0
2021-01-26 07:48:28 GMT 59.651413 -8.856354 34,000 345 379 0
2021-01-26 07:48:25 GMT 59.645142 -8.852875 34,000 345 380 0
2021-01-26 07:48:18 GMT 59.633698 -8.846466 34,000 345 379 0
2021-01-26 07:48:14 GMT 59.627785 -8.843142 34,000 345 379 0
2021-01-26 07:48:08 GMT 59.617538 -8.837402 34,000 344 379 0
2021-01-26 07:48:05 GMT 59.611313 -8.833832 34,000 344 379 0
2021-01-26 07:47:58 GMT 59.600689 -8.827893 34,000 345 379 -64
2021-01-26 07:47:55 GMT 59.594776 -8.824579 34,000 345 379 -64
2021-01-26 07:47:48 GMT 59.583324 -8.818138 34,000 345 379 64
2021-01-26 07:47:44 GMT 59.577461 -8.814824 34,000 345 379 128
2021-01-26 07:47:38 GMT 59.566544 -8.808655 34,000 345 379 -64
2021-01-26 07:47:34 GMT 59.560608 -8.805353 34,000 345 379 -128
2021-01-26 07:47:28 GMT 59.549698 -8.799225 34,025 345 379 -64
2021-01-26 07:47:24 GMT 59.543663 -8.795787 34,025 345 378 64
2021-01-26 07:47:18 GMT 59.532539 -8.789536 34,000 345 379 64
2021-01-26 07:47:14 GMT 59.526344 -8.786126 34,000 345 379 0
2021-01-26 07:47:08 GMT 59.515732 -8.780182 34,025 345 379 -64
2021-01-26 07:47:04 GMT 59.509506 -8.776794 34,025 345 379 -64
2021-01-26 07:46:57 GMT 59.498554 -8.770689 34,025 345 379 64
2021-01-26 07:46:54 GMT 59.491989 -8.767090 34,025 345 379 64
2021-01-26 07:46:48 GMT 59.482075 -8.761597 34,025 345 379 0
2021-01-26 07:46:44 GMT 59.475697 -8.757998 34,025 345 379 0
2021-01-26 07:46:37 GMT 59.464737 -8.751892 34,000 345 379 64
2021-01-26 07:46:33 GMT 59.458191 -8.748230 34,000 345 379 0
2021-01-26 07:46:28 GMT 59.448120 -8.742645 34,000 345 379 0
2021-01-26 07:46:23 GMT 59.441387 -8.738961 34,000 345 379 0
2021-01-26 07:46:17 GMT 59.429935 -8.732616 34,000 345 379 0
2021-01-26 07:46:12 GMT 59.422531 -8.728546 34,000 345 379 -64
2021-01-26 07:46:07 GMT 59.413967 -8.723713 34,000 345 378 0
2021-01-26 07:46:02 GMT 59.405548 -8.719025 34,000 345 378 0
2021-01-26 07:45:57 GMT 59.396805 -8.714172 34,000 345 378 0
2021-01-26 07:45:52 GMT 59.388931 -8.709869 34,025 345 378 -64
2021-01-26 07:45:46 GMT 59.378860 -8.704285 34,025 345 378 0
2021-01-26 07:45:42 GMT 59.372269 -8.700714 34,000 345 378 64
2021-01-26 07:45:37 GMT 59.363205 -8.695679 34,000 345 379 64
2021-01-26 07:45:32 GMT 59.355148 -8.691193 34,000 345 379 0
2021-01-26 07:45:27 GMT 59.346222 -8.686249 34,000 345 379 0
2021-01-26 07:45:21 GMT 59.336838 -8.681030 34,000 345 379 -64
2021-01-26 07:45:16 GMT 59.328594 -8.676453 34,000 345 379 -64
2021-01-26 07:45:12 GMT 59.320496 -8.671967 34,000 345 379 -64
2021-01-26 07:45:07 GMT 59.312256 -8.667389 34,000 345 379 0
2021-01-26 07:45:01 GMT 59.303192 -8.662262 34,000 345 379 64
2021-01-26 07:44:57 GMT 59.295818 -8.658174 34,000 345 379 0
2021-01-26 07:44:51 GMT 59.286045 -8.652775 34,000 345 379 -64
2021-01-26 07:44:46 GMT 59.278271 -8.648513 34,025 345 378 0
2021-01-26 07:44:41 GMT 59.268169 -8.643020 34,000 345 378 64
2021-01-26 07:44:37 GMT 59.261604 -8.639421 34,000 345 379 0
2021-01-26 07:44:31 GMT 59.252155 -8.634307 34,000 345 379 0
2021-01-26 07:44:26 GMT 59.244568 -8.630140 34,000 345 380 0
2021-01-26 07:44:23 GMT 59.238003 -8.626541 34,000 345 380 0
2021-01-26 07:44:20 GMT 59.234299 -8.624451 34,000 345 380 0
2021-01-26 07:44:17 GMT 59.227901 -8.620953 34,000 345 380 64
2021-01-26 07:44:10 GMT 59.217426 -8.615270 34,000 345 380 64
2021-01-26 07:44:06 GMT 59.210724 -8.611542 34,000 345 380 0
2021-01-26 07:44:00 GMT 59.199234 -8.605225 34,000 345 379 -64
2021-01-26 07:43:56 GMT 59.192986 -8.601727 34,000 345 379 0
2021-01-26 07:43:52 GMT 59.186420 -8.598033 34,000 345 380 64
2021-01-26 07:43:49 GMT 59.181534 -8.595381 34,000 345 380 64
2021-01-26 07:43:46 GMT 59.176804 -8.592773 34,000 345 380 64
2021-01-26 07:43:40 GMT 59.165359 -8.586456 34,000 345 380 0
2021-01-26 07:43:36 GMT 59.159607 -8.583258 34,000 345 380 -64
2021-01-26 07:43:30 GMT 59.148483 -8.577197 34,000 345 381 -64
2021-01-26 07:43:26 GMT 59.142570 -8.573977 34,000 345 380 0
2021-01-26 07:43:22 GMT 59.135788 -8.570251 34,000 345 380 64
2021-01-26 07:43:19 GMT 59.131397 -8.567915 34,000 345 380 64
2021-01-26 07:43:16 GMT 59.125305 -8.564575 34,000 345 380 0
2021-01-26 07:43:12 GMT 59.118549 -8.560907 34,000 345 380 -64
2021-01-26 07:43:09 GMT 59.113449 -8.558167 34,025 345 380 -64
2021-01-26 07:43:06 GMT 59.108402 -8.555414 34,025 345 380 0
2021-01-26 07:43:02 GMT 59.101463 -8.551625 34,025 345 381 64
2021-01-26 07:42:58 GMT 59.095871 -8.548645 34,000 345 381 64
2021-01-26 07:42:55 GMT 59.090805 -8.545848 34,000 345 381 64
2021-01-26 07:42:52 GMT 59.084194 -8.542249 34,000 345 381 -64
2021-01-26 07:42:49 GMT 59.079666 -8.539764 34,000 345 381 -64
2021-01-26 07:42:46 GMT 59.074558 -8.537040 34,025 345 380 0
2021-01-26 07:42:42 GMT 59.067627 -8.533264 34,000 345 381 0
2021-01-26 07:42:39 GMT 59.062222 -8.530316 34,025 345 381 0
2021-01-26 07:42:35 GMT 59.056961 -8.527474 34,000 345 381 0
2021-01-26 07:42:32 GMT 59.050552 -8.524017 34,000 345 381 0
2021-01-26 07:42:26 GMT 59.040199 -8.518382 34,025 345 381 0
2021-01-26 07:42:21 GMT 59.032940 -8.514404 34,000 345 381 64
2021-01-26 07:42:18 GMT 59.027847 -8.511658 34,000 345 381 0
2021-01-26 07:42:15 GMT 59.023270 -8.509094 34,000 345 381 0
2021-01-26 07:42:11 GMT 59.015808 -8.505028 34,000 345 382 -64
2021-01-26 07:42:08 GMT 59.009720 -8.501770 34,025 345 382 -64
2021-01-26 07:42:05 GMT 59.006149 -8.499847 34,025 345 382 -64
2021-01-26 07:42:01 GMT 58.999050 -8.495936 34,025 345 382 0
2021-01-26 07:41:55 GMT 58.989029 -8.490509 34,000 345 382 0
2021-01-26 07:41:51 GMT 58.982071 -8.486755 34,000 345 381 64
2021-01-26 07:41:45 GMT 58.972229 -8.481537 34,000 345 381 0
2021-01-26 07:41:41 GMT 58.964554 -8.477373 34,000 345 382 -64
2021-01-26 07:41:37 GMT 58.957764 -8.473755 34,000 345 382 0
2021-01-26 07:41:34 GMT 58.953335 -8.471406 34,000 345 383 0
2021-01-26 07:41:31 GMT 58.947563 -8.468281 34,000 345 383 0
2021-01-26 07:41:25 GMT 58.937366 -8.462787 34,000 345 382 0
2021-01-26 07:41:21 GMT 58.930431 -8.458999 34,000 345 383 0
2021-01-26 07:41:15 GMT 58.920563 -8.453695 34,000 345 383 0
2021-01-26 07:41:11 GMT 58.913086 -8.449677 34,025 345 383 -64
2021-01-26 07:41:05 GMT 58.903564 -8.444550 34,000 345 383 0
2021-01-26 07:41:00 GMT 58.895737 -8.440338 34,000 345 383 64
2021-01-26 07:40:55 GMT 58.886208 -8.435132 34,000 345 383 0
2021-01-26 07:40:50 GMT 58.878387 -8.430965 34,000 345 383 0
2021-01-26 07:40:45 GMT 58.868820 -8.425873 34,025 345 382 0
2021-01-26 07:40:41 GMT 58.862183 -8.422302 34,000 345 382 0
2021-01-26 07:40:34 GMT 58.851479 -8.416569 34,000 345 383 0
2021-01-26 07:40:30 GMT 58.843277 -8.412249 34,000 345 383 0
2021-01-26 07:40:25 GMT 58.834908 -8.407745 34,025 345 383 0
2021-01-26 07:40:20 GMT 58.827072 -8.403566 34,000 345 383 0
2021-01-26 07:40:14 GMT 58.817032 -8.398224 34,000 345 384 0
2021-01-26 07:40:10 GMT 58.810226 -8.394529 34,000 345 383 0
2021-01-26 07:40:04 GMT 58.800339 -8.389213 34,000 345 384 0
2021-01-26 07:40:00 GMT 58.792824 -8.385223 34,000 345 384 0
2021-01-26 07:39:54 GMT 58.783447 -8.380265 34,000 345 384 0
2021-01-26 07:39:50 GMT 58.775600 -8.375977 34,000 345 384 0
2021-01-26 07:39:44 GMT 58.766235 -8.370962 34,000 345 384 0
2021-01-26 07:39:40 GMT 58.758408 -8.366798 34,000 345 384 -64
2021-01-26 07:39:34 GMT 58.748833 -8.361694 34,000 345 384 0
2021-01-26 07:39:30 GMT 58.741337 -8.357666 34,000 345 384 0
2021-01-26 07:39:24 GMT 58.731606 -8.352448 34,000 345 384 0
2021-01-26 07:39:20 GMT 58.724064 -8.348511 34,000 345 384 0
2021-01-26 07:39:14 GMT 58.714508 -8.343407 34,000 345 384 0
2021-01-26 07:39:10 GMT 58.706795 -8.339355 34,000 345 384 0
2021-01-26 07:39:04 GMT 58.697067 -8.334193 34,000 345 384 0
2021-01-26 07:38:59 GMT 58.689198 -8.330017 34,000 345 385 -64
2021-01-26 07:38:54 GMT 58.679443 -8.324802 34,000 345 385 0
2021-01-26 07:38:50 GMT 58.672626 -8.321136 34,000 345 385 64
2021-01-26 07:38:44 GMT 58.662384 -8.315735 34,000 345 385 0
2021-01-26 07:38:39 GMT 58.654816 -8.311689 34,000 345 385 -64
2021-01-26 07:38:33 GMT 58.644741 -8.306396 34,025 345 384 0
2021-01-26 07:38:29 GMT 58.637512 -8.302563 34,000 345 385 64
2021-01-26 07:38:23 GMT 58.627048 -8.297058 34,000 345 385 64
2021-01-26 07:38:19 GMT 58.620022 -8.293396 34,000 345 385 0
2021-01-26 07:38:13 GMT 58.609589 -8.287856 34,000 345 385 0
2021-01-26 07:38:09 GMT 58.603226 -8.284489 34,000 345 385 0
2021-01-26 07:38:02 GMT 58.591553 -8.278375 34,000 345 386 -64
2021-01-26 07:37:59 GMT 58.585510 -8.275186 34,000 345 386 0
2021-01-26 07:37:52 GMT 58.574680 -8.269409 34,000 345 386 64
2021-01-26 07:37:49 GMT 58.567978 -8.265839 34,000 345 386 0
2021-01-26 07:37:42 GMT 58.556664 -8.259888 34,000 345 386 -64
2021-01-26 07:37:38 GMT 58.550613 -8.256683 34,025 345 389 0
2021-01-26 07:37:32 GMT 58.539623 -8.250824 34,000 345 386 64
2021-01-26 07:37:29 GMT 58.533920 -8.247897 34,000 345 387 0
2021-01-26 07:37:22 GMT 58.521881 -8.241518 34,000 345 387 -64
2021-01-26 07:37:18 GMT 58.516022 -8.238464 34,000 345 387 -64
2021-01-26 07:37:13 GMT 58.506527 -8.233521 34,000 345 387 0
2021-01-26 07:37:09 GMT 58.498940 -8.229492 34,000 345 387 0
2021-01-26 07:37:01 GMT 58.486137 -8.222809 34,000 345 388 0
2021-01-26 07:36:58 GMT 58.481155 -8.220245 34,000 345 388 0
2021-01-26 07:36:51 GMT 58.468552 -8.213609 34,000 345 388 0
2021-01-26 07:36:48 GMT 58.464203 -8.211306 34,000 345 389 -64
2021-01-26 07:36:43 GMT 58.454018 -8.205963 34,000 345 389 0
2021-01-26 07:36:38 GMT 58.446613 -8.202026 34,000 345 388 0
2021-01-26 07:36:33 GMT 58.436932 -8.196991 34,000 345 388 0
2021-01-26 07:36:30 GMT 58.432926 -8.194885 34,000 345 388 0
2021-01-26 07:36:26 GMT 58.424084 -8.190308 34,000 345 389 0
2021-01-26 07:36:23 GMT 58.419754 -8.188019 34,000 345 389 0
2021-01-26 07:36:18 GMT 58.411095 -8.183533 34,000 345 389 0
2021-01-26 07:36:13 GMT 58.402248 -8.178864 34,000 345 390 0
2021-01-26 07:36:10 GMT 58.397781 -8.176486 34,025 345 390 0
2021-01-26 07:36:05 GMT 58.389633 -8.172180 34,000 345 389 0
2021-01-26 07:36:02 GMT 58.384598 -8.169575 34,000 345 389 0
2021-01-26 07:35:58 GMT 58.376587 -8.165411 34,000 345 389 0
2021-01-26 07:35:53 GMT 58.367386 -8.160627 34,000 345 390 0
2021-01-26 07:35:50 GMT 58.362350 -8.157969 34,000 345 390 -64
2021-01-26 07:35:47 GMT 58.358734 -8.156108 34,025 345 391 0
2021-01-26 07:35:42 GMT 58.349670 -8.151412 34,025 345 391 0
2021-01-26 07:35:38 GMT 58.341522 -8.147071 34,025 345 390 0
2021-01-26 07:35:35 GMT 58.337170 -8.144806 34,025 345 391 0
2021-01-26 07:35:32 GMT 58.331955 -8.142110 34,000 345 391 0
2021-01-26 07:35:29 GMT 58.326370 -8.139186 34,000 345 390 0
2021-01-26 07:35:26 GMT 58.319962 -8.135908 34,000 345 391 0
2021-01-26 07:35:22 GMT 58.314732 -8.133179 34,000 345 391 0
2021-01-26 07:35:17 GMT 58.306183 -8.128731 34,000 345 391 0
2021-01-26 07:35:12 GMT 58.296616 -8.123769 34,000 345 391 0
2021-01-26 07:35:06 GMT 58.284565 -8.117615 34,000 345 392 0
2021-01-26 07:35:02 GMT 58.279358 -8.114821 34,000 345 392 0
2021-01-26 07:34:59 GMT 58.273579 -8.111847 34,000 345 392 0
2021-01-26 07:34:55 GMT 58.267639 -8.108796 34,000 345 393 0
2021-01-26 07:34:52 GMT 58.261520 -8.105621 34,000 345 393 0
2021-01-26 07:34:46 GMT 58.251049 -8.100128 34,000 345 392 0
2021-01-26 07:34:42 GMT 58.244064 -8.096558 34,000 345 392 0
2021-01-26 07:34:38 GMT 58.237427 -8.093114 34,000 345 392 -64
2021-01-26 07:34:35 GMT 58.232147 -8.090424 34,000 345 393 0
2021-01-26 07:34:32 GMT 58.226578 -8.087532 34,000 345 392 0
2021-01-26 07:34:28 GMT 58.219578 -8.083923 34,000 345 393 0
2021-01-26 07:34:25 GMT 58.214130 -8.081085 34,000 345 393 0
2021-01-26 07:34:22 GMT 58.209057 -8.078522 34,000 345 393 -64
2021-01-26 07:34:18 GMT 58.202213 -8.074951 34,025 345 393 0
2021-01-26 07:34:15 GMT 58.197140 -8.072388 34,025 345 393 0
2021-01-26 07:34:11 GMT 58.190689 -8.069015 34,000 345 393 64
2021-01-26 07:34:06 GMT 58.178940 -8.062958 34,000 345 393 0
2021-01-26 07:34:01 GMT 58.173492 -8.060211 34,000 345 393 -64
2021-01-26 07:33:55 GMT 58.162086 -8.054260 34,025 345 393 0
2021-01-26 07:33:51 GMT 58.155617 -8.050964 34,000 345 394 64
2021-01-26 07:33:45 GMT 58.144024 -8.045013 34,000 345 394 0
2021-01-26 07:33:41 GMT 58.137726 -8.041726 34,000 345 394 -64
2021-01-26 07:33:35 GMT 58.126659 -8.036041 34,025 345 394 0
2021-01-26 07:33:31 GMT 58.120331 -8.032778 34,025 345 394 64
2021-01-26 07:33:25 GMT 58.107994 -8.026520 34,000 345 394 0
2021-01-26 07:33:21 GMT 58.102734 -8.023773 34,000 345 394 0
2021-01-26 07:33:15 GMT 58.090954 -8.017731 34,000 345 394 0
2021-01-26 07:33:11 GMT 58.085495 -8.014881 34,000 345 395 0
2021-01-26 07:33:05 GMT 58.073364 -8.008679 34,000 345 395 0
2021-01-26 07:33:01 GMT 58.066864 -8.005312 34,000 345 396 64
2021-01-26 07:32:55 GMT 58.055759 -7.999603 34,000 345 395 0
2021-01-26 07:32:51 GMT 58.049377 -7.996275 34,000 345 396 -64
2021-01-26 07:32:45 GMT 58.037933 -7.990356 34,025 345 395 -64
2021-01-26 07:32:40 GMT 58.031040 -7.986877 34,025 345 395 0
2021-01-26 07:32:34 GMT 58.019577 -7.981036 34,000 345 396 0
2021-01-26 07:32:31 GMT 58.013763 -7.978023 34,000 345 396 0
2021-01-26 07:32:24 GMT 58.001247 -7.971680 34,000 345 396 0
2021-01-26 07:32:21 GMT 57.996277 -7.969163 34,025 345 396 0
2021-01-26 07:32:15 GMT 57.984818 -7.963257 34,000 345 396 64
2021-01-26 07:32:11 GMT 57.978287 -7.959949 34,000 345 396 0
2021-01-26 07:32:04 GMT 57.967312 -7.954376 34,000 345 397 0
2021-01-26 07:32:01 GMT 57.960571 -7.951001 34,000 345 397 0
2021-01-26 07:31:54 GMT 57.949219 -7.945242 34,000 346 398 0
2021-01-26 07:31:50 GMT 57.942490 -7.941875 34,000 346 399 0
2021-01-26 07:31:43 GMT 57.929306 -7.935230 34,000 345 399 0
2021-01-26 07:31:40 GMT 57.924866 -7.932926 34,025 345 400 -64
2021-01-26 07:31:34 GMT 57.912735 -7.926813 34,025 345 400 -64
2021-01-26 07:31:30 GMT 57.906876 -7.923801 34,025 345 400 -64
2021-01-26 07:31:24 GMT 57.894745 -7.917687 34,025 345 400 0
2021-01-26 07:31:20 GMT 57.888638 -7.914642 34,025 345 401 0
2021-01-26 07:31:13 GMT 57.876488 -7.908508 34,025 345 401 0
2021-01-26 07:31:10 GMT 57.870251 -7.905304 34,025 345 401 0
2021-01-26 07:31:03 GMT 57.858425 -7.899353 34,000 346 402 0
2021-01-26 07:31:00 GMT 57.852142 -7.896240 34,000 346 402 0
2021-01-26 07:30:53 GMT 57.839573 -7.889923 34,025 346 402 0
2021-01-26 07:30:50 GMT 57.834404 -7.887268 34,000 346 402 0
2021-01-26 07:30:43 GMT 57.821640 -7.880918 34,000 346 402 0
2021-01-26 07:30:40 GMT 57.815926 -7.878021 34,025 346 402 64
2021-01-26 07:30:33 GMT 57.804062 -7.872058 34,025 346 402 0
2021-01-26 07:30:30 GMT 57.798328 -7.869232 34,025 346 402 0
2021-01-26 07:30:22 GMT 57.785198 -7.862640 34,000 346 403 0
2021-01-26 07:30:19 GMT 57.779800 -7.859920 34,000 346 402 0
2021-01-26 07:30:13 GMT 57.767788 -7.853943 34,025 345 402 0
2021-01-26 07:30:10 GMT 57.762405 -7.851238 34,025 345 402 0
2021-01-26 07:30:06 GMT 57.755035 -7.847516 34,025 345 402 0
2021-01-26 07:30:02 GMT 57.748238 -7.844055 34,025 345 402 0
2021-01-26 07:29:59 GMT 57.743721 -7.841766 34,025 345 403 0
2021-01-26 07:29:55 GMT 57.735489 -7.837593 34,000 345 403 0
2021-01-26 07:29:52 GMT 57.730637 -7.835113 34,000 345 403 0
2021-01-26 07:29:49 GMT 57.725986 -7.832720 34,000 345 403 -64
2021-01-26 07:29:45 GMT 57.717178 -7.828274 34,000 345 403 128
2021-01-26 07:29:40 GMT 57.708202 -7.823772 34,025 345 403 64
2021-01-26 07:29:32 GMT 57.693832 -7.816515 34,000 345 402 64
2021-01-26 07:29:29 GMT 57.690094 -7.814557 34,000 345 403 -64
2021-01-26 07:29:24 GMT 57.680038 -7.809507 34,000 345 403 -128
2021-01-26 07:29:21 GMT 57.675198 -7.807027 34,025 345 402 0
2021-01-26 07:29:18 GMT 57.668911 -7.803837 34,025 345 402 64
2021-01-26 07:29:14 GMT 57.662628 -7.800736 34,000 345 402 0
2021-01-26 07:29:11 GMT 57.657211 -7.797976 34,025 345 402 0
2021-01-26 07:29:08 GMT 57.651131 -7.794888 34,000 345 402 0
2021-01-26 07:29:02 GMT 57.640888 -7.789750 34,000 345 402 64
2021-01-26 07:28:59 GMT 57.635147 -7.786903 34,000 346 404 -64
2021-01-26 07:28:53 GMT 57.622787 -7.780638 34,000 345 402 -64
2021-01-26 07:28:49 GMT 57.617752 -7.778143 34,000 345 402 -64
2021-01-26 07:28:42 GMT 57.604660 -7.771540 34,000 345 402 0
2021-01-26 07:28:39 GMT 57.599442 -7.768965 34,000 345 402 0
2021-01-26 07:28:32 GMT 57.585770 -7.762107 34,000 346 403 0
2021-01-26 07:28:29 GMT 57.581303 -7.759892 34,000 346 403 0
2021-01-26 07:28:22 GMT 57.568176 -7.753429 34,000 346 403 0
2021-01-26 07:28:18 GMT 57.562637 -7.750683 34,000 346 403 -64
2021-01-26 07:28:13 GMT 57.553436 -7.746134 34,000 346 403 0
2021-01-26 07:28:09 GMT 57.545380 -7.742186 34,000 346 403 0
2021-01-26 07:28:02 GMT 57.532242 -7.735662 34,000 346 403 0
2021-01-26 07:27:59 GMT 57.526882 -7.733046 34,000 345 403 0
2021-01-26 07:27:52 GMT 57.515335 -7.727287 34,000 345 403 0
2021-01-26 07:27:49 GMT 57.504364 -7.721758 34,000 345 403 0
2021-01-26 07:27:46 GMT 57.504364 -7.721758 34,000 345 404 0
2021-01-26 07:27:41 GMT 57.495529 -7.717381 34,000 346 404 0
2021-01-26 07:27:38 GMT 57.490311 -7.714806 34,000 346 404 0
2021-01-26 07:27:33 GMT 57.481110 -7.710257 34,025 346 405 0
2021-01-26 07:27:28 GMT 57.472092 -7.705793 34,025 346 405 64
2021-01-26 07:27:21 GMT 57.459412 -7.699528 34,000 346 405 0
2021-01-26 07:27:18 GMT 57.454193 -7.696867 34,000 346 405 -64
2021-01-26 07:27:12 GMT 57.440277 -7.690001 34,025 346 405 0
2021-01-26 07:27:08 GMT 57.436295 -7.688026 34,025 346 405 0
2021-01-26 07:27:01 GMT 57.422745 -7.681304 34,025 346 405 -64
2021-01-26 07:26:58 GMT 57.417160 -7.678585 34,025 345 404 -64
2021-01-26 07:26:53 GMT 57.408127 -7.674039 34,025 345 404 -64
2021-01-26 07:26:49 GMT 57.395512 -7.667748 34,025 345 404 64
2021-01-26 07:26:46 GMT 57.395512 -7.667748 34,025 345 404 64
2021-01-26 07:26:41 GMT 57.385036 -7.662609 34,000 346 404 64
2021-01-26 07:26:38 GMT 57.381218 -7.660749 34,000 345 404 0
2021-01-26 07:26:35 GMT 57.376705 -7.658534 34,000 345 404 0
2021-01-26 07:26:31 GMT 57.368774 -7.654552 34,000 345 404 -64
2021-01-26 07:26:28 GMT 57.362823 -7.651634 34,000 345 404 -64
2021-01-26 07:26:25 GMT 57.357758 -7.649142 34,025 345 404 0
2021-01-26 07:26:21 GMT 57.349823 -7.645197 34,025 346 404 0
2021-01-26 07:26:17 GMT 57.343506 -7.642107 34,025 346 404 64
2021-01-26 07:26:14 GMT 57.338287 -7.639532 34,000 346 405 0
2021-01-26 07:26:11 GMT 57.331970 -7.636442 34,000 346 404 0
2021-01-26 07:26:08 GMT 57.326706 -7.633867 34,000 346 404 0
2021-01-26 07:26:05 GMT 57.322052 -7.631600 34,025 346 404 0
2021-01-26 07:26:00 GMT 57.312649 -7.626993 34,025 345 404 0
2021-01-26 07:25:57 GMT 57.307251 -7.624254 34,025 345 404 64
2021-01-26 07:25:54 GMT 57.302719 -7.622108 34,000 345 404 64
2021-01-26 07:25:50 GMT 57.294773 -7.618133 34,000 345 404 64
2021-01-26 07:25:46 GMT 57.288300 -7.614899 34,000 345 404 -64
2021-01-26 07:25:42 GMT 57.271866 -7.606831 34,025 346 404 -64
2021-01-26 07:25:38 GMT 57.271866 -7.606831 34,025 346 404 0
2021-01-26 07:25:35 GMT 57.267014 -7.604513 34,025 346 404 0
2021-01-26 07:25:31 GMT 57.257996 -7.600058 34,000 346 404 64
2021-01-26 07:25:27 GMT 57.254227 -7.598198 34,000 346 404 0
2021-01-26 07:25:24 GMT 57.247742 -7.595072 34,000 346 404 -64
2021-01-26 07:25:20 GMT 57.239594 -7.591124 34,025 346 404 -64
2021-01-26 07:25:16 GMT 57.233509 -7.588186 34,025 346 403 0
2021-01-26 07:25:12 GMT 57.225952 -7.584515 34,025 346 403 0
2021-01-26 07:25:09 GMT 57.220520 -7.581895 34,000 346 403 0
2021-01-26 07:25:05 GMT 57.212978 -7.578174 34,025 346 403 0
2021-01-26 07:25:01 GMT 57.205952 -7.574807 34,000 346 403 64
2021-01-26 07:24:58 GMT 57.199860 -7.571812 34,000 346 403 0
2021-01-26 07:24:55 GMT 57.195381 -7.569669 34,000 346 403 0
2021-01-26 07:24:50 GMT 57.186028 -7.565062 34,000 346 402 0
2021-01-26 07:24:45 GMT 57.177040 -7.560720 34,025 346 402 0
2021-01-26 07:24:41 GMT 57.169876 -7.557220 34,000 346 402 0
2021-01-26 07:24:38 GMT 57.162689 -7.553701 34,000 346 402 0
2021-01-26 07:24:35 GMT 57.159119 -7.551899 34,000 346 402 0
2021-01-26 07:24:31 GMT 57.151764 -7.548316 34,000 346 402 0
2021-01-26 07:24:27 GMT 57.144974 -7.545033 34,000 346 402 -64
2021-01-26 07:24:24 GMT 57.139938 -7.542629 34,025 346 401 -64
2021-01-26 07:24:20 GMT 57.132584 -7.539190 34,025 346 401 0
2021-01-26 07:24:17 GMT 57.127369 -7.536710 34,025 346 401 0
2021-01-26 07:24:13 GMT 57.120209 -7.533274 34,025 346 400 64
2021-01-26 07:24:10 GMT 57.115723 -7.531128 34,000 346 401 64
2021-01-26 07:24:07 GMT 57.109634 -7.528204 34,000 346 401 64
2021-01-26 07:24:03 GMT 57.102280 -7.524660 34,000 346 401 -64
2021-01-26 07:24:00 GMT 57.097111 -7.522179 34,000 346 401 -64
2021-01-26 07:23:57 GMT 57.091370 -7.519455 34,000 346 401 0
2021-01-26 07:23:53 GMT 57.077419 -7.512699 34,025 346 400 0
2021-01-26 07:23:50 GMT 57.077419 -7.512699 34,025 346 400 0
2021-01-26 07:23:47 GMT 57.073288 -7.510786 34,025 346 400 0
2021-01-26 07:23:42 GMT 57.065594 -7.507029 34,000 346 400 0
2021-01-26 07:23:39 GMT 57.059498 -7.504105 34,000 346 400 0
2021-01-26 07:23:36 GMT 57.054703 -7.501802 34,000 346 400 64
2021-01-26 07:23:32 GMT 57.047195 -7.498169 34,025 346 400 -64
2021-01-26 07:23:29 GMT 57.041481 -7.495334 34,000 346 400 -64
2021-01-26 07:23:25 GMT 57.033615 -7.491613 34,000 346 400 0
2021-01-26 07:23:21 GMT 57.027374 -7.488512 34,000 346 400 0
2021-01-26 07:23:18 GMT 57.021835 -7.485854 34,000 346 400 0
2021-01-26 07:23:14 GMT 57.014526 -7.482310 34,000 346 399 0
2021-01-26 07:23:11 GMT 57.009033 -7.479652 34,000 346 399 64
2021-01-26 07:23:08 GMT 57.004395 -7.477398 34,000 346 399 0
2021-01-26 07:23:05 GMT 56.997803 -7.474222 34,000 346 399 -64
2021-01-26 07:23:01 GMT 56.991020 -7.470969 34,000 346 399 -64
2021-01-26 07:22:58 GMT 56.986225 -7.468665 34,025 346 399 -64
2021-01-26 07:22:55 GMT 56.981232 -7.466240 34,025 346 398 -64
2021-01-26 07:22:51 GMT 56.974445 -7.462995 34,025 346 398 128
2021-01-26 07:22:48 GMT 56.968414 -7.460146 34,025 346 398 128
2021-01-26 07:22:44 GMT 56.961643 -7.456882 34,000 346 398 128
2021-01-26 07:22:41 GMT 56.955265 -7.453781 34,000 346 398 -64
2021-01-26 07:22:38 GMT 56.950836 -7.451649 34,000 346 398 -64
2021-01-26 07:22:34 GMT 56.943375 -7.448044 34,000 346 398 -64
2021-01-26 07:22:31 GMT 56.937881 -7.445383 34,000 346 398 64
2021-01-26 07:22:28 GMT 56.931290 -7.442207 34,000 346 398 128
2021-01-26 07:22:24 GMT 56.925797 -7.439632 34,000 346 398 64
2021-01-26 07:22:19 GMT 56.915836 -7.434820 34,000 346 398 -64
2021-01-26 07:22:16 GMT 56.911240 -7.432594 34,000 346 398 0
2021-01-26 07:22:13 GMT 56.905872 -7.430036 34,000 346 398 0
2021-01-26 07:22:09 GMT 56.900009 -7.427201 34,000 346 398 -64
2021-01-26 07:22:06 GMT 56.892929 -7.423840 34,000 346 398 -64
2021-01-26 07:22:02 GMT 56.887756 -7.421350 34,000 346 398 -64
2021-01-26 07:21:59 GMT 56.880829 -7.418075 34,000 346 398 0
2021-01-26 07:21:56 GMT 56.875717 -7.415600 34,000 346 398 0
2021-01-26 07:21:53 GMT 56.870911 -7.413282 34,000 346 398 0
2021-01-26 07:21:49 GMT 56.864536 -7.410190 34,000 346 398 64
2021-01-26 07:21:46 GMT 56.857414 -7.406823 34,000 346 398 0
2021-01-26 07:21:43 GMT 56.853687 -7.405051 34,000 346 398 -64
2021-01-26 07:21:40 GMT 56.847656 -7.402124 34,000 346 397 0
2021-01-26 07:21:37 GMT 56.842888 -7.399824 34,000 346 397 0
2021-01-26 07:21:34 GMT 56.836514 -7.396723 34,000 346 397 64
2021-01-26 07:21:29 GMT 56.828178 -7.392736 34,000 346 397 0
2021-01-26 07:21:26 GMT 56.821793 -7.389593 34,000 346 397 -64
2021-01-26 07:21:23 GMT 56.818218 -7.387863 34,000 346 397 -64
2021-01-26 07:21:20 GMT 56.811676 -7.384701 34,025 346 397 0
2021-01-26 07:21:17 GMT 56.807602 -7.382812 34,000 346 397 64
2021-01-26 07:21:14 GMT 56.799957 -7.379122 34,000 346 398 64
2021-01-26 07:21:10 GMT 56.794846 -7.376699 34,000 346 398 0
2021-01-26 07:21:08 GMT 56.789520 -7.374144 34,000 346 398 0
2021-01-26 07:21:05 GMT 56.781162 -7.370143 34,000 346 398 0
2021-01-26 07:21:02 GMT 56.781162 -7.370143 34,000 346 398 0
2021-01-26 07:20:59 GMT 56.774597 -7.366953 34,000 346 398 -64
2021-01-26 07:20:55 GMT 56.767662 -7.363675 34,000 346 398 -64
2021-01-26 07:20:52 GMT 56.763382 -7.361612 34,000 346 398 -64
2021-01-26 07:20:47 GMT 56.753277 -7.356764 34,000 346 398 0
2021-01-26 07:20:43 GMT 56.746342 -7.353486 34,000 346 398 64
2021-01-26 07:20:39 GMT 56.738472 -7.349765 34,000 346 398 0
2021-01-26 07:20:36 GMT 56.735092 -7.348223 34,000 346 398 0
2021-01-26 07:20:33 GMT 56.728699 -7.345158 34,000 346 398 -64
2021-01-26 07:20:27 GMT 56.713394 -7.337837 34,000 346 398 0
2021-01-26 07:20:24 GMT 56.713394 -7.337837 34,000 346 398 -64
2021-01-26 07:20:21 GMT 56.706257 -7.334526 34,000 346 398 0
2021-01-26 07:20:18 GMT 56.698997 -7.331070 34,000 346 398 64
2021-01-26 07:20:15 GMT 56.695770 -7.329512 34,000 346 398 64
2021-01-26 07:20:12 GMT 56.690430 -7.326995 34,000 346 399 64
2021-01-26 07:20:09 GMT 56.684891 -7.324425 34,000 346 398 0
2021-01-26 07:20:05 GMT 56.677956 -7.321147 34,000 346 399 -192
2021-01-26 07:20:02 GMT 56.672241 -7.318525 34,025 346 399 -192
2021-01-26 07:19:59 GMT 56.667068 -7.316122 34,025 346 399 -64
2021-01-26 07:19:55 GMT 56.661011 -7.313351 34,025 346 399 64
2021-01-26 07:19:52 GMT 56.654205 -7.310200 34,000 346 398 0
2021-01-26 07:19:48 GMT 56.648907 -7.307680 34,025 346 398 -64
2021-01-26 07:19:45 GMT 56.641754 -7.304363 34,025 346 398 -64
2021-01-26 07:19:41 GMT 56.636429 -7.301833 34,025 346 398 0
2021-01-26 07:19:37 GMT 56.626968 -7.297411 34,000 346 398 128
2021-01-26 07:19:34 GMT 56.622696 -7.295365 34,000 346 398 128
2021-01-26 07:19:31 GMT 56.619141 -7.293720 34,000 346 398 128
2021-01-26 07:19:27 GMT 56.610596 -7.289695 34,000 346 399 0
2021-01-26 07:19:24 GMT 56.605591 -7.287283 34,000 346 400 -64
2021-01-26 07:19:21 GMT 56.600956 -7.285087 34,000 346 399 -64
2021-01-26 07:19:17 GMT 56.591675 -7.280690 34,025 346 399 -128
2021-01-26 07:19:14 GMT 56.587189 -7.278609 34,025 346 399 -128
2021-01-26 07:19:11 GMT 56.583481 -7.276861 34,025 346 399 -64
2021-01-26 07:19:08 GMT 56.576523 -7.273532 34,025 346 399 64
2021-01-26 07:19:05 GMT 56.571163 -7.271061 34,000 346 399 128
2021-01-26 07:19:02 GMT 56.567047 -7.269121 34,000 346 399 64
2021-01-26 07:18:58 GMT 56.559013 -7.265310 34,000 346 399 -64
2021-01-26 07:18:54 GMT 56.551529 -7.261796 34,000 346 399 -64
2021-01-26 07:18:51 GMT 56.547607 -7.259903 34,025 346 399 0
2021-01-26 07:18:48 GMT 56.540997 -7.256813 34,000 346 399 64
2021-01-26 07:18:45 GMT 56.535645 -7.254223 34,000 346 399 64
2021-01-26 07:18:42 GMT 56.530609 -7.251892 34,000 346 399 0
2021-01-26 07:18:37 GMT 56.520470 -7.247028 34,000 346 399 -64
2021-01-26 07:18:34 GMT 56.516373 -7.245140 34,025 346 399 -64
2021-01-26 07:18:31 GMT 56.511017 -7.242570 34,025 346 399 0
2021-01-26 07:18:28 GMT 56.504745 -7.239657 34,025 346 400 0
2021-01-26 07:18:25 GMT 56.500637 -7.237673 34,025 346 399 0
2021-01-26 07:18:22 GMT 56.494949 -7.234996 34,025 346 399 0
2021-01-26 07:18:18 GMT 56.487076 -7.231251 34,025 346 399 0
2021-01-26 07:18:15 GMT 56.482819 -7.229254 34,025 346 399 0
2021-01-26 07:18:12 GMT 56.476730 -7.226424 34,025 346 399 64
2021-01-26 07:18:08 GMT 56.468719 -7.222678 34,000 346 399 64
2021-01-26 07:18:04 GMT 56.462494 -7.219765 34,000 346 399 0
2021-01-26 07:18:01 GMT 56.458183 -7.217760 34,000 346 399 0
2021-01-26 07:17:58 GMT 56.451199 -7.214499 34,000 346 399 -64
2021-01-26 07:17:54 GMT 56.444588 -7.211494 34,025 346 399 -64
2021-01-26 07:17:51 GMT 56.440292 -7.209445 34,025 346 399 0
2021-01-26 07:17:48 GMT 56.434067 -7.206532 34,000 346 399 128
2021-01-26 07:17:45 GMT 56.428528 -7.203952 34,000 346 400 128
2021-01-26 07:17:42 GMT 56.422440 -7.201122 34,000 346 400 64
2021-01-26 07:17:37 GMT 56.414749 -7.197543 34,000 346 400 -64
2021-01-26 07:17:34 GMT 56.410091 -7.195358 34,025 346 400 -128
2021-01-26 07:17:31 GMT 56.404724 -7.192882 34,025 346 400 -64
2021-01-26 07:17:27 GMT 56.397217 -7.189387 34,025 346 399 0
2021-01-26 07:17:24 GMT 56.386139 -7.184226 34,000 346 399 64
2021-01-26 07:17:21 GMT 56.386139 -7.184226 34,000 346 399 64
2021-01-26 07:17:17 GMT 56.378815 -7.180814 34,000 346 400 64
2021-01-26 07:17:13 GMT 56.371857 -7.177485 34,000 346 399 -64
2021-01-26 07:17:10 GMT 56.366684 -7.175071 34,000 346 399 -64
2021-01-26 07:17:07 GMT 56.361145 -7.172491 34,025 346 399 -64
2021-01-26 07:17:04 GMT 56.355766 -7.170038 34,025 346 399 0
2021-01-26 07:17:01 GMT 56.350433 -7.167497 34,025 346 399 64
2021-01-26 07:16:58 GMT 56.345432 -7.165146 34,000 346 399 64
2021-01-26 07:16:55 GMT 56.340218 -7.162743 34,000 346 399 0
2021-01-26 07:16:51 GMT 56.332539 -7.159138 34,000 346 399 -64
2021-01-26 07:16:47 GMT 56.325787 -7.155962 34,000 346 399 0
2021-01-26 07:16:44 GMT 56.319176 -7.152872 34,000 346 399 0
2021-01-26 07:16:41 GMT 56.313812 -7.150435 34,000 346 399 0
2021-01-26 07:16:38 GMT 56.308640 -7.148021 34,000 346 399 -64
2021-01-26 07:16:35 GMT 56.304153 -7.145941 34,000 346 399 -64
2021-01-26 07:16:31 GMT 56.296143 -7.142112 34,025 346 399 -64
2021-01-26 07:16:27 GMT 56.289150 -7.138882 34,025 346 399 64
2021-01-26 07:16:23 GMT 56.282398 -7.135792 34,000 346 399 128
2021-01-26 07:16:20 GMT 56.277740 -7.133623 34,000 346 399 128
2021-01-26 07:16:17 GMT 56.271133 -7.130556 34,000 346 399 64
2021-01-26 07:16:13 GMT 56.264511 -7.127547 34,000 346 399 -64
2021-01-26 07:16:10 GMT 56.259869 -7.125406 34,000 346 399 -64
2021-01-26 07:16:07 GMT 56.253445 -7.122402 34,000 346 399 0
2021-01-26 07:16:04 GMT 56.247391 -7.119640 34,000 346 399 0
2021-01-26 07:16:01 GMT 56.242172 -7.117226 34,000 346 399 0
2021-01-26 07:15:58 GMT 56.236500 -7.114592 34,000 346 399 0
2021-01-26 07:15:55 GMT 56.231827 -7.112482 34,000 346 399 0
2021-01-26 07:15:52 GMT 56.227203 -7.110318 34,000 346 399 0
2021-01-26 07:15:49 GMT 56.221138 -7.107553 34,000 346 399 0
2021-01-26 07:15:46 GMT 56.216995 -7.105579 34,000 346 399 0
2021-01-26 07:15:43 GMT 56.210587 -7.102661 34,000 346 399 -64
2021-01-26 07:15:40 GMT 56.204865 -7.099998 34,025 346 399 0
2021-01-26 07:15:37 GMT 56.200928 -7.098167 34,025 346 399 0
2021-01-26 07:15:34 GMT 56.194324 -7.095108 34,000 346 399 0
2021-01-26 07:15:30 GMT 56.185410 -7.091009 34,000 346 399 -64
2021-01-26 07:15:27 GMT 56.182388 -7.089594 34,000 346 399 -64
2021-01-26 07:15:24 GMT 56.177006 -7.087126 34,025 346 399 0
2021-01-26 07:15:21 GMT 56.171654 -7.084637 34,025 346 399 0
2021-01-26 07:15:18 GMT 56.165405 -7.081770 34,025 346 399 -64
2021-01-26 07:15:14 GMT 56.160233 -7.079357 34,025 346 399 64
2021-01-26 07:15:11 GMT 56.153450 -7.076225 34,025 346 399 64
2021-01-26 07:15:08 GMT 56.147911 -7.073650 34,000 346 399 64
2021-01-26 07:15:05 GMT 56.142929 -7.071367 34,000 346 399 0
2021-01-26 07:15:02 GMT 56.138275 -7.069273 34,000 346 399 0
2021-01-26 07:14:59 GMT 56.131531 -7.066123 34,000 346 398 0
2021-01-26 07:14:57 GMT 56.128143 -7.064625 34,000 346 398 0
2021-01-26 07:14:54 GMT 56.123657 -7.062492 34,000 346 398 0
2021-01-26 07:14:51 GMT 56.117603 -7.059746 34,000 346 398 0
2021-01-26 07:14:48 GMT 56.113174 -7.057717 34,025 346 398 0
2021-01-26 07:14:45 GMT 56.107456 -7.055025 34,000 346 398 0
2021-01-26 07:14:42 GMT 56.102463 -7.052723 34,000 346 399 64
2021-01-26 07:14:39 GMT 56.096748 -7.050133 34,000 346 399 0
2021-01-26 07:14:36 GMT 56.090515 -7.047230 34,000 346 399 -64
2021-01-26 07:14:33 GMT 56.085159 -7.044811 34,000 346 399 64
2021-01-26 07:14:30 GMT 56.080170 -7.042486 34,025 346 399 0
2021-01-26 07:14:27 GMT 56.075500 -7.040405 34,000 346 399 64
2021-01-26 07:14:24 GMT 56.069798 -7.037773 34,000 346 399 64
2021-01-26 07:14:21 GMT 56.064240 -7.035245 34,000 346 399 0
2021-01-26 07:14:19 GMT 56.059788 -7.033224 34,000 346 399 -64
2021-01-26 07:14:15 GMT 56.053551 -7.030392 34,025 346 399 -64
2021-01-26 07:14:12 GMT 56.048012 -7.027903 34,025 346 399 -64
2021-01-26 07:14:10 GMT 56.044418 -7.026256 34,025 346 399 0
2021-01-26 07:14:07 GMT 56.039631 -7.024040 34,025 346 399 0
2021-01-26 07:14:04 GMT 56.033905 -7.021465 34,025 346 399 0
2021-01-26 07:14:01 GMT 56.028366 -7.018890 34,025 346 399 64
2021-01-26 07:13:58 GMT 56.023544 -7.016768 34,000 346 399 64
2021-01-26 07:13:55 GMT 56.018215 -7.014256 34,000 346 399 64
2021-01-26 07:13:52 GMT 56.011234 -7.011166 34,000 346 399 -64
2021-01-26 07:13:49 GMT 56.007507 -7.009449 34,025 346 398 -64
2021-01-26 07:13:46 GMT 56.001617 -7.006697 34,025 346 398 0
2021-01-26 07:13:44 GMT 55.997173 -7.004728 34,025 346 398 64
2021-01-26 07:13:41 GMT 55.992874 -7.002785 34,000 346 398 128
2021-01-26 07:13:39 GMT 55.989670 -7.001287 34,000 346 398 128
2021-01-26 07:13:36 GMT 55.983444 -6.998457 34,000 346 398 64
2021-01-26 07:13:34 GMT 55.980789 -6.997292 34,000 346 398 0
2021-01-26 07:13:31 GMT 55.975063 -6.994686 34,000 346 398 -64
2021-01-26 07:13:29 GMT 55.966358 -6.990738 34,000 346 398 -64
2021-01-26 07:13:26 GMT 55.966358 -6.990738 34,000 346 398 -128
2021-01-26 07:13:24 GMT 55.961563 -6.988506 34,025 346 397 -64
2021-01-26 07:13:19 GMT 55.953369 -6.984816 34,025 346 397 0
2021-01-26 07:13:16 GMT 55.947876 -6.982311 34,000 346 397 0
2021-01-26 07:13:14 GMT 55.945221 -6.981146 34,000 346 397 -64
2021-01-26 07:13:11 GMT 55.939499 -6.978550 34,025 346 397 -64
2021-01-26 07:13:09 GMT 55.935974 -6.976901 34,025 346 397 64
2021-01-26 07:13:06 GMT 55.930279 -6.974344 34,000 346 397 64
2021-01-26 07:13:04 GMT 55.927277 -6.972989 34,000 346 397 64
2021-01-26 07:13:01 GMT 55.922470 -6.970825 34,000 346 396 0
2021-01-26 07:12:59 GMT 55.912357 -6.966276 34,000 346 396 0
2021-01-26 07:12:56 GMT 55.912357 -6.966276 34,000 346 396 0
2021-01-26 07:12:54 GMT 55.909698 -6.965082 34,000 346 396 0
2021-01-26 07:12:51 GMT 55.904396 -6.962671 34,000 346 396 -64
2021-01-26 07:12:49 GMT 55.900673 -6.960955 34,025 346 396 -64
2021-01-26 07:12:46 GMT 55.894482 -6.958208 34,025 346 396 -64
2021-01-26 07:12:43 GMT 55.888458 -6.955511 34,025 346 396 64
2021-01-26 07:12:40 GMT 55.879585 -6.951513 34,000 346 396 64
2021-01-26 07:12:37 GMT 55.879585 -6.951513 34,000 346 396 128
2021-01-26 07:12:34 GMT 55.873764 -6.948853 34,000 346 396 64
2021-01-26 07:12:31 GMT 55.868412 -6.946449 34,000 346 396 0
2021-01-26 07:12:29 GMT 55.864334 -6.944691 34,000 346 396 -64
2021-01-26 07:12:26 GMT 55.859379 -6.942415 34,000 346 396 -64
2021-01-26 07:12:24 GMT 55.857426 -6.941557 34,000 346 396 0
2021-01-26 07:12:21 GMT 55.851242 -6.938782 34,000 346 397 64
2021-01-26 07:12:18 GMT 55.845928 -6.936407 34,000 346 397 64
2021-01-26 07:12:15 GMT 55.841309 -6.934287 34,000 346 397 64
2021-01-26 07:12:12 GMT 55.832794 -6.930459 34,000 346 397 -64
2021-01-26 07:12:08 GMT 55.828331 -6.928425 34,000 346 397 -64
2021-01-26 07:12:05 GMT 55.823536 -6.926279 34,000 346 397 0
2021-01-26 07:12:02 GMT 55.816086 -6.922932 34,000 346 397 64
2021-01-26 07:12:00 GMT 55.813431 -6.921720 34,000 346 397 0
2021-01-26 07:11:57 GMT 55.807755 -6.919155 34,000 346 397 -64
2021-01-26 07:11:54 GMT 55.803497 -6.917225 34,000 346 397 -128
2021-01-26 07:11:51 GMT 55.797638 -6.914562 34,000 346 397 -64
2021-01-26 07:11:48 GMT 55.792297 -6.912203 34,000 346 397 0
2021-01-26 07:11:45 GMT 55.788025 -6.910234 34,000 346 397 64
2021-01-26 07:11:43 GMT 55.782715 -6.907820 34,000 346 397 64
2021-01-26 07:11:40 GMT 55.777542 -6.905508 34,025 346 397 -64
2021-01-26 07:11:37 GMT 55.772415 -6.903159 34,000 346 397 -192
2021-01-26 07:11:34 GMT 55.767765 -6.901131 34,000 346 398 0
2021-01-26 07:11:31 GMT 55.762436 -6.898665 34,000 346 398 192
2021-01-26 07:11:28 GMT 55.756943 -6.896168 34,000 346 398 192
2021-01-26 07:11:24 GMT 55.749985 -6.893089 34,000 346 398 -64
2021-01-26 07:11:21 GMT 55.743374 -6.890059 34,000 346 398 -192
2021-01-26 07:11:18 GMT 55.738949 -6.887999 34,025 346 398 -320
2021-01-26 07:11:15 GMT 55.730198 -6.884050 34,050 346 398 -128
2021-01-26 07:11:13 GMT 55.724487 -6.881520 34,050 346 398 128
2021-01-26 07:11:10 GMT 55.724487 -6.881520 34,000 346 395 704
2021-01-26 07:11:07 GMT 55.720779 -6.879855 34,000 346 397 832
2021-01-26 07:11:04 GMT 55.714371 -6.877012 33,900 346 396 832
2021-01-26 07:11:01 GMT 55.708694 -6.874445 33,900 346 395 704
2021-01-26 07:10:59 GMT 55.705170 -6.872864 33,875 346 394 640
2021-01-26 07:10:56 GMT 55.700043 -6.870617 33,825 347 393 576
2021-01-26 07:10:53 GMT 55.689651 -6.866026 33,775 347 392 640
2021-01-26 07:10:50 GMT 55.689651 -6.866026 33,775 347 391 640
2021-01-26 07:10:47 GMT 55.685276 -6.864138 33,750 347 391 640
2021-01-26 07:10:44 GMT 55.678940 -6.861378 33,700 347 389 576
2021-01-26 07:10:41 GMT 55.672165 -6.858382 33,675 346 387 512
2021-01-26 07:10:38 GMT 55.667816 -6.856551 33,675 346 386 512
2021-01-26 07:10:34 GMT 55.660881 -6.853409 33,600 346 384 832
2021-01-26 07:10:31 GMT 55.655899 -6.851263 33,600 346 384 960
2021-01-26 07:10:29 GMT 55.652828 -6.849890 33,550 346 383 896
2021-01-26 07:10:26 GMT 55.646824 -6.847143 33,500 346 382 832
2021-01-26 07:10:23 GMT 55.642685 -6.845315 33,475 346 382 832
2021-01-26 07:10:20 GMT 55.635696 -6.842165 33,425 346 381 832
2021-01-26 07:10:17 GMT 55.632252 -6.840620 33,425 346 381 832
2021-01-26 07:10:13 GMT 55.625427 -6.837574 33,350 346 381 1024
2021-01-26 07:10:10 GMT 55.620804 -6.835494 33,300 346 381 1280
2021-01-26 07:10:08 GMT 55.617599 -6.834079 33,175 346 382 2176
2021-01-26 07:10:05 GMT 55.612106 -6.831582 33,175 346 382 2496
2021-01-26 07:10:02 GMT 55.600662 -6.826422 32,950 346 383 2688
2021-01-26 07:09:59 GMT 55.600662 -6.826422 32,850 346 384 2688
2021-01-26 07:09:55 GMT 55.594666 -6.823675 32,700 346 386 2496
2021-01-26 07:09:53 GMT 55.591194 -6.822166 32,600 346 387 2432
2021-01-26 07:09:50 GMT 55.585838 -6.819677 32,450 346 388 2880
2021-01-26 07:09:47 GMT 55.580795 -6.817350 32,275 346 390 2496
2021-01-26 07:09:44 GMT 55.575577 -6.814936 32,250 346 391 2368
2021-01-26 07:09:41 GMT 55.570312 -6.812522 32,125 346 392 1280
2021-01-26 07:09:38 GMT 55.565918 -6.810525 32,050 346 392 832
2021-01-26 07:09:35 GMT 55.560150 -6.807945 32,025 346 392 640
2021-01-26 07:09:33 GMT 55.556488 -6.806197 32,000 346 392 256
2021-01-26 07:09:30 GMT 55.550877 -6.803627 32,000 346 392 64
2021-01-26 07:09:27 GMT 55.545593 -6.801203 32,000 346 392 -64
2021-01-26 07:09:24 GMT 55.540359 -6.798820 32,000 346 392 0
2021-01-26 07:09:21 GMT 55.534378 -6.796126 32,000 346 392 0
2021-01-26 07:09:18 GMT 55.529984 -6.794128 32,000 346 392 -64
2021-01-26 07:09:15 GMT 55.517395 -6.788469 32,000 346 392 -64
2021-01-26 07:09:11 GMT 55.517395 -6.788469 32,000 346 392 -64
2021-01-26 07:09:08 GMT 55.513000 -6.786471 32,000 346 392 0
2021-01-26 07:09:05 GMT 55.507233 -6.783891 32,025 346 391 -64
2021-01-26 07:09:01 GMT 55.499496 -6.780396 32,025 346 391 -64
2021-01-26 07:08:58 GMT 55.494781 -6.778315 32,025 346 390 64
2021-01-26 07:08:55 GMT 55.481701 -6.772385 32,000 346 390 64
2021-01-26 07:08:51 GMT 55.481701 -6.772385 32,000 346 391 64
2021-01-26 07:08:48 GMT 55.477325 -6.770496 32,000 346 390 0
2021-01-26 07:08:45 GMT 55.472763 -6.768494 32,025 346 390 0
2021-01-26 07:08:43 GMT 55.468575 -6.766548 32,000 346 390 0
2021-01-26 07:08:40 GMT 55.463837 -6.764499 32,025 346 390 0
2021-01-26 07:08:37 GMT 55.459126 -6.762342 32,000 346 390 0
2021-01-26 07:08:34 GMT 55.453903 -6.760004 32,025 346 390 0
2021-01-26 07:08:30 GMT 55.446350 -6.756758 32,000 346 390 64
2021-01-26 07:08:28 GMT 55.442001 -6.754815 32,000 346 390 0
2021-01-26 07:08:25 GMT 55.437618 -6.752846 32,000 346 390 -64
2021-01-26 07:08:23 GMT 55.433613 -6.751099 32,000 346 390 0
2021-01-26 07:08:20 GMT 55.428165 -6.748685 32,000 346 390 -64
2021-01-26 07:08:18 GMT 55.424862 -6.747187 32,000 346 390 0
2021-01-26 07:08:15 GMT 55.419250 -6.744717 32,000 346 390 64
2021-01-26 07:08:12 GMT 55.415085 -6.742859 32,000 346 390 0
2021-01-26 07:08:09 GMT 55.409637 -6.740445 32,000 346 390 -64
2021-01-26 07:08:07 GMT 55.405975 -6.738820 32,000 346 390 -64
2021-01-26 07:08:04 GMT 55.401772 -6.737033 32,000 346 390 -64
2021-01-26 07:08:01 GMT 55.396698 -6.734786 32,025 346 390 64
2021-01-26 07:07:58 GMT 55.389725 -6.731711 32,025 346 390 64
2021-01-26 07:07:55 GMT 55.384277 -6.729288 32,025 346 390 0
2021-01-26 07:07:50 GMT 55.375214 -6.725248 32,000 346 390 0
2021-01-26 07:07:47 GMT 55.369278 -6.722634 32,000 346 390 64
2021-01-26 07:07:44 GMT 55.365784 -6.721048 32,025 346 390 0
2021-01-26 07:07:40 GMT 55.357735 -6.717557 32,025 346 390 -64
2021-01-26 07:07:38 GMT 55.355125 -6.716392 32,000 347 390 -64
2021-01-26 07:07:35 GMT 55.349854 -6.714101 32,000 347 390 128
2021-01-26 07:07:33 GMT 55.344280 -6.711648 32,000 347 390 0
2021-01-26 07:07:30 GMT 55.340092 -6.709817 32,000 347 390 -64
2021-01-26 07:07:28 GMT 55.336411 -6.708235 32,000 347 390 -64
2021-01-26 07:07:25 GMT 55.332363 -6.706487 32,000 347 390 -128
2021-01-26 07:07:23 GMT 55.328522 -6.704811 32,000 347 390 -64
2021-01-26 07:07:20 GMT 55.323303 -6.702549 32,025 347 390 -64
2021-01-26 07:07:18 GMT 55.320648 -6.701418 32,000 347 390 0
2021-01-26 07:07:15 GMT 55.314560 -6.698833 32,025 347 390 64
2021-01-26 07:07:10 GMT 55.305817 -6.695036 32,000 347 390 64
2021-01-26 07:07:07 GMT 55.301079 -6.693004 32,000 347 389 0
2021-01-26 07:07:04 GMT 55.296051 -6.690840 32,000 347 389 0
2021-01-26 07:07:01 GMT 55.290604 -6.688510 32,000 347 389 64
2021-01-26 07:06:58 GMT 55.285034 -6.686069 32,000 347 389 0
2021-01-26 07:06:55 GMT 55.279633 -6.683727 32,000 347 389 -64
2021-01-26 07:06:52 GMT 55.274597 -6.681465 32,000 347 389 -64
2021-01-26 07:06:49 GMT 55.269516 -6.679284 32,000 347 389 -64
2021-01-26 07:06:47 GMT 55.264629 -6.677191 32,000 347 389 0
2021-01-26 07:06:44 GMT 55.260452 -6.675406 32,000 347 389 0
2021-01-26 07:06:41 GMT 55.255920 -6.673467 32,000 347 389 0
2021-01-26 07:06:38 GMT 55.249779 -6.670782 32,000 347 389 0
2021-01-26 07:06:34 GMT 55.242981 -6.667869 32,000 347 389 0
2021-01-26 07:06:31 GMT 55.238464 -6.665871 32,000 347 389 0
2021-01-26 07:06:28 GMT 55.231808 -6.663042 32,000 347 389 0
2021-01-26 07:06:25 GMT 55.226944 -6.660865 32,025 347 389 -64
2021-01-26 07:06:23 GMT 55.222595 -6.659007 32,000 347 389 -64
2021-01-26 07:06:19 GMT 55.217514 -6.656745 32,000 347 389 -64
2021-01-26 07:06:17 GMT 55.213699 -6.655135 32,000 346 389 0
2021-01-26 07:06:14 GMT 55.207603 -6.652471 32,000 346 388 128
2021-01-26 07:06:11 GMT 55.203224 -6.650557 32,000 346 389 64
2021-01-26 07:06:08 GMT 55.197174 -6.647811 32,000 346 389 -128
2021-01-26 07:06:05 GMT 55.191589 -6.645314 32,000 346 389 -64
2021-01-26 07:06:01 GMT 55.186188 -6.642983 32,025 346 389 0
2021-01-26 07:05:58 GMT 55.179951 -6.640153 32,025 346 388 0
2021-01-26 07:05:55 GMT 55.174736 -6.637823 32,000 346 388 64
2021-01-26 07:05:52 GMT 55.169384 -6.635409 32,000 346 388 -64
2021-01-26 07:05:49 GMT 55.165192 -6.633561 32,025 346 388 -64
2021-01-26 07:05:47 GMT 55.159836 -6.631138 32,025 346 388 -64
2021-01-26 07:05:44 GMT 55.157410 -6.630087 32,000 346 388 -64
2021-01-26 07:05:41 GMT 55.151688 -6.627502 32,025 346 388 0
2021-01-26 07:05:38 GMT 55.145966 -6.624922 32,025 346 388 0
2021-01-26 07:05:35 GMT 55.140568 -6.622509 32,025 346 388 64
2021-01-26 07:05:33 GMT 55.137123 -6.621011 32,025 346 388 64
2021-01-26 07:05:29 GMT 55.129669 -6.617728 32,000 346 388 64
2021-01-26 07:05:25 GMT 55.122738 -6.614602 32,000 346 387 64
2021-01-26 07:05:22 GMT 55.113007 -6.610357 32,000 346 388 64
2021-01-26 07:05:19 GMT 55.113007 -6.610357 32,000 347 388 64
2021-01-26 07:05:17 GMT 55.109344 -6.608761 32,000 347 388 -64
2021-01-26 07:05:14 GMT 55.105682 -6.607226 32,000 347 388 -64
2021-01-26 07:05:12 GMT 55.102066 -6.605611 32,000 347 388 -64
2021-01-26 07:05:09 GMT 55.095612 -6.602864 32,025 347 388 -64
2021-01-26 07:05:06 GMT 55.089684 -6.600370 32,025 347 388 64
2021-01-26 07:05:03 GMT 55.082935 -6.597456 32,000 347 388 64
2021-01-26 07:04:59 GMT 55.077862 -6.595293 32,000 346 387 0
2021-01-26 07:04:57 GMT 55.074417 -6.593794 32,025 346 387 64
2021-01-26 07:04:54 GMT 55.070786 -6.592213 32,000 346 387 0
2021-01-26 07:04:52 GMT 55.066772 -6.590424 32,000 346 387 0
2021-01-26 07:04:49 GMT 55.060181 -6.587515 32,000 346 387 -64
2021-01-26 07:04:46 GMT 55.055656 -6.585555 32,025 346 387 0
2021-01-26 07:04:43 GMT 55.048534 -6.582475 32,000 346 387 0
2021-01-26 07:04:39 GMT 55.043507 -6.580311 32,000 346 387 -64
2021-01-26 07:04:37 GMT 55.039364 -6.578397 32,025 346 387 64
2021-01-26 07:04:34 GMT 55.035553 -6.576771 32,000 346 387 64
2021-01-26 07:04:32 GMT 55.026215 -6.572652 32,000 346 387 64
2021-01-26 07:04:29 GMT 55.026215 -6.572652 32,000 346 387 64
2021-01-26 07:04:27 GMT 55.020973 -6.570407 32,000 346 387 0
2021-01-26 07:04:24 GMT 55.018555 -6.569408 32,000 346 387 -64
2021-01-26 07:04:22 GMT 55.014549 -6.567660 32,000 346 387 -64
2021-01-26 07:04:19 GMT 55.007996 -6.564735 32,025 347 387 0
2021-01-26 07:04:17 GMT 55.005566 -6.563748 32,000 347 387 0
2021-01-26 07:04:14 GMT 55.001038 -6.561746 32,000 346 387 0
2021-01-26 07:04:12 GMT 54.996872 -6.559969 32,000 347 387 0
2021-01-26 07:04:09 GMT 54.991470 -6.557707 32,000 347 387 0
2021-01-26 07:04:06 GMT 54.986946 -6.555758 32,000 347 388 0
2021-01-26 07:04:03 GMT 54.981590 -6.553428 32,000 346 387 0
2021-01-26 07:04:00 GMT 54.976730 -6.551325 32,000 346 387 -64
2021-01-26 07:03:57 GMT 54.967857 -6.547519 32,000 346 387 0
2021-01-26 07:03:54 GMT 54.966137 -6.546770 32,025 346 387 0
2021-01-26 07:03:51 GMT 54.960037 -6.544106 32,000 346 388 64
2021-01-26 07:03:48 GMT 54.954311 -6.541609 32,000 346 388 0
2021-01-26 07:03:45 GMT 54.950634 -6.540028 32,000 346 388 -64
2021-01-26 07:03:42 GMT 54.942814 -6.536699 32,000 347 389 -64
2021-01-26 07:03:38 GMT 54.937786 -6.534535 32,000 347 388 0
2021-01-26 07:03:35 GMT 54.931503 -6.531857 32,000 347 388 -64
2021-01-26 07:03:32 GMT 54.926788 -6.529837 32,000 346 388 0
2021-01-26 07:03:29 GMT 54.921432 -6.527495 32,025 346 388 0
2021-01-26 07:03:26 GMT 54.916183 -6.525296 32,000 346 388 0
2021-01-26 07:03:23 GMT 54.910629 -6.522890 32,000 347 389 0
2021-01-26 07:03:19 GMT 54.904541 -6.520224 32,000 346 388 0
2021-01-26 07:03:17 GMT 54.899460 -6.518043 32,000 347 389 0
2021-01-26 07:03:14 GMT 54.896347 -6.516751 32,000 347 389 0
2021-01-26 07:03:12 GMT 54.893188 -6.515392 32,000 347 389 0
2021-01-26 07:03:09 GMT 54.886230 -6.512388 32,000 347 389 0
2021-01-26 07:03:07 GMT 54.883621 -6.511257 32,000 346 388 0
2021-01-26 07:03:04 GMT 54.878384 -6.509066 32,000 346 388 0
2021-01-26 07:03:01 GMT 54.873688 -6.506976 32,000 346 388 0
2021-01-26 07:02:59 GMT 54.869339 -6.505118 32,000 346 388 0
2021-01-26 07:02:57 GMT 54.865997 -6.503664 32,000 346 388 0
2021-01-26 07:02:54 GMT 54.860786 -6.501409 32,000 346 388 0
2021-01-26 07:02:51 GMT 54.856430 -6.499463 32,000 346 388 0
2021-01-26 07:02:49 GMT 54.851944 -6.497498 32,025 346 388 0
2021-01-26 07:02:47 GMT 54.848419 -6.495990 32,000 346 389 0
2021-01-26 07:02:44 GMT 54.841644 -6.493001 32,025 346 389 0
2021-01-26 07:02:41 GMT 54.838348 -6.491547 32,000 346 389 64
2021-01-26 07:02:38 GMT 54.833450 -6.489446 32,000 346 389 64
2021-01-26 07:02:35 GMT 54.827866 -6.487023 32,000 346 389 64
2021-01-26 07:02:32 GMT 54.822662 -6.484763 32,000 346 390 0
2021-01-26 07:02:29 GMT 54.816006 -6.481850 32,000 346 390 -64
2021-01-26 07:02:26 GMT 54.811115 -6.479686 32,000 346 390 -64
2021-01-26 07:02:23 GMT 54.805904 -6.477439 32,000 346 390 -64
2021-01-26 07:02:20 GMT 54.801525 -6.475525 32,000 346 390 -64
2021-01-26 07:02:17 GMT 54.796097 -6.473209 32,025 346 390 0
2021-01-26 07:02:14 GMT 54.791931 -6.471351 32,000 346 390 64
2021-01-26 07:02:11 GMT 54.785980 -6.468783 32,000 346 390 0
2021-01-26 07:02:09 GMT 54.778996 -6.465704 32,000 346 390 0
2021-01-26 07:02:07 GMT 54.778996 -6.465704 32,000 346 390 0
2021-01-26 07:02:04 GMT 54.774628 -6.463758 32,000 346 390 0
2021-01-26 07:02:02 GMT 54.770599 -6.462061 32,000 346 390 0
2021-01-26 07:01:59 GMT 54.764660 -6.459462 32,000 346 390 -128
2021-01-26 07:01:57 GMT 54.761307 -6.457963 32,000 346 390 -64
2021-01-26 07:01:54 GMT 54.755356 -6.455437 32,025 347 390 0
2021-01-26 07:01:51 GMT 54.751160 -6.453635 32,000 347 391 64
2021-01-26 07:01:49 GMT 54.746593 -6.451721 32,000 347 391 64
2021-01-26 07:01:47 GMT 54.738216 -6.448142 32,000 347 391 64
2021-01-26 07:01:44 GMT 54.738216 -6.448142 32,000 347 391 0
2021-01-26 07:01:41 GMT 54.733143 -6.445978 32,000 347 391 0
2021-01-26 07:01:39 GMT 54.729767 -6.444532 32,000 347 391 0
2021-01-26 07:01:37 GMT 54.727158 -6.443481 32,000 347 391 0
2021-01-26 07:01:34 GMT 54.719971 -6.440412 32,000 347 391 -64
2021-01-26 07:01:31 GMT 54.715576 -6.438554 32,000 347 391 0
2021-01-26 07:01:29 GMT 54.711681 -6.436990 32,000 347 391 0
2021-01-26 07:01:27 GMT 54.709213 -6.435908 32,000 347 392 0
2021-01-26 07:01:24 GMT 54.703396 -6.433577 32,000 347 392 -64
2021-01-26 07:01:21 GMT 54.698322 -6.431413 32,000 347 392 0
2021-01-26 07:01:18 GMT 54.689476 -6.427751 32,000 347 393 128
2021-01-26 07:01:16 GMT 54.689476 -6.427751 32,000 347 393 128
2021-01-26 07:01:13 GMT 54.684174 -6.425629 32,000 347 394 192
2021-01-26 07:01:10 GMT 54.679916 -6.423851 31,975 347 395 64
2021-01-26 07:01:08 GMT 54.675697 -6.422091 32,000 347 395 -128
2021-01-26 07:01:06 GMT 54.671227 -6.420260 32,000 347 395 -192
2021-01-26 07:01:03 GMT 54.665035 -6.417680 32,025 347 395 -64
2021-01-26 07:01:00 GMT 54.661514 -6.416177 32,000 347 395 128
2021-01-26 07:00:57 GMT 54.656021 -6.413835 32,000 347 395 448
2021-01-26 07:00:54 GMT 54.650528 -6.411573 31,950 347 394 1088
2021-01-26 07:00:51 GMT 54.645767 -6.409553 31,925 347 394 1408
2021-01-26 07:00:48 GMT 54.639431 -6.406860 31,800 347 394 1600
2021-01-26 07:00:46 GMT 54.636566 -6.405676 31,750 347 394 1600
2021-01-26 07:00:43 GMT 54.632172 -6.403781 31,700 347 394 1536
2021-01-26 07:00:40 GMT 54.625793 -6.401117 31,600 347 394 1600
2021-01-26 07:00:37 GMT 54.620346 -6.398787 31,525 347 394 1792
2021-01-26 07:00:34 GMT 54.614155 -6.396124 31,425 347 394 1536
2021-01-26 07:00:31 GMT 54.609192 -6.394043 31,350 347 393 1344
2021-01-26 07:00:27 GMT 54.601639 -6.390812 31,225 347 393 1472
2021-01-26 07:00:24 GMT 54.592117 -6.386853 31,125 347 392 1472
2021-01-26 07:00:21 GMT 54.592117 -6.386853 31,075 347 392 1472
2021-01-26 07:00:18 GMT 54.586826 -6.384555 31,025 347 392 1664
2021-01-26 07:00:16 GMT 54.582268 -6.382640 30,925 347 392 1536
2021-01-26 07:00:13 GMT 54.577843 -6.380809 30,925 347 392 1600
2021-01-26 07:00:10 GMT 54.573303 -6.378856 30,825 347 392 1728
2021-01-26 07:00:08 GMT 54.569420 -6.377231 30,775 347 392 1664
2021-01-26 07:00:06 GMT 54.565739 -6.375649 30,725 347 392 1600
2021-01-26 07:00:03 GMT 54.560291 -6.373402 30,625 347 392 1344
2021-01-26 06:59:59 GMT 54.548004 -6.368159 30,525 347 390 1472
2021-01-26 06:59:56 GMT 54.548004 -6.368159 30,500 347 390 1728
2021-01-26 06:59:53 GMT 54.542038 -6.365689 30,375 347 390 2048
2021-01-26 06:59:50 GMT 54.536785 -6.363414 30,250 346 390 2048
2021-01-26 06:59:47 GMT 54.532242 -6.361488 30,150 346 390 1792
2021-01-26 06:59:43 GMT 54.525612 -6.358587 30,050 346 390 1728
2021-01-26 06:59:40 GMT 54.518967 -6.355752 29,700 346 390 2304
2021-01-26 06:59:37 GMT 54.509689 -6.351762 29,875 346 390 2048
2021-01-26 06:59:34 GMT 54.509689 -6.351762 29,775 346 390 2304
2021-01-26 06:59:32 GMT 54.506527 -6.350347 29,625 346 390 2112
2021-01-26 06:59:29 GMT 54.496563 -6.346103 29,475 346 391 2176
2021-01-26 06:59:27 GMT 54.496563 -6.346103 29,450 346 391 2432
2021-01-26 06:59:24 GMT 54.490280 -6.343356 29,375 346 392 2432
2021-01-26 06:59:20 GMT 54.485001 -6.341131 29,200 347 392 2112
2021-01-26 06:59:17 GMT 54.480412 -6.339195 29,100 347 393 2176
2021-01-26 06:59:14 GMT 54.474792 -6.336849 29,050 347 393 2176
2021-01-26 06:59:11 GMT 54.469849 -6.334749 28,875 347 393 2368
2021-01-26 06:59:08 GMT 54.461231 -6.331121 28,800 347 394 2304
2021-01-26 06:59:06 GMT 54.461231 -6.331121 28,750 347 394 2432
2021-01-26 06:59:03 GMT 54.455200 -6.328529 28,550 347 395 2432
2021-01-26 06:59:00 GMT 54.450760 -6.326671 28,525 347 395 2304
2021-01-26 06:58:57 GMT 54.445450 -6.324463 28,425 347 396 2176
2021-01-26 06:58:54 GMT 54.433346 -6.319386 28,250 347 396 2368
2021-01-26 06:58:51 GMT 54.433346 -6.319386 28,150 347 397 2240
2021-01-26 06:58:48 GMT 54.427479 -6.316889 27,725 347 398 2432
2021-01-26 06:58:46 GMT 54.423943 -6.315391 27,950 347 397 2304
2021-01-26 06:58:43 GMT 54.417664 -6.312776 27,800 347 397 2368
2021-01-26 06:58:40 GMT 54.415703 -6.311978 27,725 347 398 2368
2021-01-26 06:58:38 GMT 54.410534 -6.309814 27,650 347 398 2304
2021-01-26 06:58:36 GMT 54.407696 -6.308649 27,550 347 398 2112
2021-01-26 06:58:33 GMT 54.402695 -6.306556 27,500 347 398 2176
2021-01-26 06:58:31 GMT 54.398384 -6.304737 27,375 347 398 2432
2021-01-26 06:58:28 GMT 54.392670 -6.302356 27,250 347 398 2496
2021-01-26 06:58:26 GMT 54.389122 -6.300909 27,175 347 399 2560
2021-01-26 06:58:23 GMT 54.384464 -6.298911 27,000 347 399 2432
2021-01-26 06:58:20 GMT 54.379951 -6.297080 26,800 346 399 2048
2021-01-26 06:58:18 GMT 54.374588 -6.294762 26,850 346 399 2112
2021-01-26 06:58:16 GMT 54.371014 -6.293252 26,775 346 399 2048
2021-01-26 06:58:13 GMT 54.366730 -6.291421 26,700 347 399 2112
2021-01-26 06:58:10 GMT 54.356674 -6.287176 26,575 347 399 2176
2021-01-26 06:58:08 GMT 54.356674 -6.287176 26,500 347 399 2176
2021-01-26 06:58:06 GMT 54.353275 -6.285761 26,425 346 399 2112
2021-01-26 06:58:03 GMT 54.342728 -6.281191 26,300 346 399 1984
2021-01-26 06:58:00 GMT 54.342728 -6.281191 26,250 346 398 2048
2021-01-26 06:57:57 GMT 54.337357 -6.278853 26,050 346 399 2112
2021-01-26 06:57:54 GMT 54.331116 -6.276190 26,000 346 398 1984
2021-01-26 06:57:51 GMT 54.325577 -6.273776 25,925 346 398 1792
2021-01-26 06:57:48 GMT 54.320618 -6.271578 25,850 347 397 1472
2021-01-26 06:57:46 GMT 54.316177 -6.269639 25,775 347 397 1216
2021-01-26 06:57:43 GMT 54.303417 -6.264954 25,725 348 397 1024
2021-01-26 06:57:40 GMT 54.303417 -6.264954 25,675 350 396 576
2021-01-26 06:57:37 GMT 54.301464 -6.264288 25,675 351 395 512
2021-01-26 06:57:34 GMT 54.295876 -6.262706 25,650 352 394 448
2021-01-26 06:57:31 GMT 54.288666 -6.260915 25,600 354 392 512
2021-01-26 06:57:28 GMT 54.285263 -6.260210 25,600 354 392 576
2021-01-26 06:57:26 GMT 54.280930 -6.259460 25,575 356 391 704
2021-01-26 06:57:23 GMT 54.275345 -6.258676 25,550 357 390 704
2021-01-26 06:57:20 GMT 54.270859 -6.258205 25,525 358 390 576
2021-01-26 06:57:17 GMT 54.260403 -6.257683 25,450 0 389 1344
2021-01-26 06:57:14 GMT 54.260403 -6.257683 25,425 0 389 1408
2021-01-26 06:57:11 GMT 54.252861 -6.257845 25,300 1 389 2048
2021-01-26 06:57:08 GMT 54.249481 -6.258048 25,250 2 389 2240
2021-01-26 06:57:06 GMT 54.246597 -6.258283 25,200 2 389 2304
2021-01-26 06:57:03 GMT 54.234924 -6.259068 25,025 2 389 2560
2021-01-26 06:57:00 GMT 54.234924 -6.259068 24,900 2 389 2624
2021-01-26 06:56:57 GMT 54.228653 -6.259460 24,750 2 389 2688
2021-01-26 06:56:53 GMT 54.217854 -6.260187 24,575 2 390 2560
2021-01-26 06:56:50 GMT 54.217854 -6.260187 24,475 2 390 2368
2021-01-26 06:56:48 GMT 54.212643 -6.260591 24,375 2 390 2112
2021-01-26 06:56:46 GMT 54.209568 -6.260753 24,275 2 390 1920
2021-01-26 06:56:43 GMT 54.204529 -6.261108 24,250 2 389 1728
2021-01-26 06:56:40 GMT 54.199142 -6.261399 24,175 2 389 1280
2021-01-26 06:56:37 GMT 54.194824 -6.261736 24,125 2 388 960
2021-01-26 06:56:35 GMT 54.184616 -6.262449 24,075 2 387 512
2021-01-26 06:56:32 GMT 54.184616 -6.262449 24,050 2 386 448
2021-01-26 06:56:29 GMT 54.179626 -6.262756 24,000 2 386 384
2021-01-26 06:56:26 GMT 54.174133 -6.263149 24,000 2 386 320
2021-01-26 06:56:23 GMT 54.168930 -6.263500 24,000 2 386 0
2021-01-26 06:56:20 GMT 54.163971 -6.263855 24,000 2 387 64
2021-01-26 06:56:18 GMT 54.158966 -6.264227 24,000 2 387 -64
2021-01-26 06:56:15 GMT 54.154312 -6.264561 24,000 2 387 0
2021-01-26 06:56:12 GMT 54.149506 -6.264875 24,000 2 387 0
2021-01-26 06:56:10 GMT 54.141647 -6.265438 24,000 2 387 -64
2021-01-26 06:56:08 GMT 54.141647 -6.265438 24,000 2 387 -64
2021-01-26 06:56:05 GMT 54.131268 -6.266165 24,025 2 387 -128
2021-01-26 06:56:02 GMT 54.131268 -6.266165 24,025 2 387 -64
2021-01-26 06:55:59 GMT 54.127171 -6.266408 24,025 2 387 0
2021-01-26 06:55:57 GMT 54.122498 -6.266759 24,025 2 387 0
2021-01-26 06:55:55 GMT 54.117874 -6.267072 24,000 2 387 64
2021-01-26 06:55:52 GMT 54.112335 -6.267465 24,000 2 387 64
2021-01-26 06:55:48 GMT 54.105377 -6.267857 24,025 0 384 -128
2021-01-26 06:55:46 GMT 54.102497 -6.268023 24,025 0 385 -128
2021-01-26 06:55:43 GMT 54.098419 -6.268171 24,025 0 385 -128
2021-01-26 06:55:41 GMT 54.094345 -6.268171 24,025 0 384 -128
2021-01-26 06:55:38 GMT 54.088120 -6.267936 24,025 358 382 64
2021-01-26 06:55:36 GMT 54.085144 -6.267779 24,000 357 381 512
2021-01-26 06:55:33 GMT 54.079697 -6.267386 24,000 356 381 768
2021-01-26 06:55:30 GMT 54.075268 -6.266892 23,975 356 379 896
2021-01-26 06:55:28 GMT 54.070038 -6.266131 23,925 355 378 896
2021-01-26 06:55:26 GMT 54.067261 -6.265600 23,900 354 377 896
2021-01-26 06:55:23 GMT 54.062229 -6.264630 23,875 353 377 832
2021-01-26 06:55:20 GMT 54.057201 -6.263500 23,825 352 376 832
2021-01-26 06:55:18 GMT 54.052734 -6.262364 23,800 351 376 832
2021-01-26 06:55:13 GMT 54.045410 -6.260088 23,750 349 374 832
2021-01-26 06:55:10 GMT 54.040512 -6.258362 23,600 347 373 1536
2021-01-26 06:55:07 GMT 54.034439 -6.256068 23,650 347 373 1344
2021-01-26 06:55:03 GMT 54.028107 -6.253496 23,550 347 373 1856
2021-01-26 06:55:00 GMT 54.023575 -6.251692 23,375 347 372 2560
2021-01-26 06:54:58 GMT 54.019218 -6.249928 23,325 347 372 2560
2021-01-26 06:54:56 GMT 54.015701 -6.248474 20,850 347 367 2560
2021-01-26 06:54:52 GMT 54.010025 -6.246198 23,075 347 372 2560
2021-01-26 06:54:49 GMT 54.003662 -6.243609 22,775 347 371 2496
2021-01-26 06:54:46 GMT 54.000183 -6.242196 22,800 347 371 2496
2021-01-26 06:54:43 GMT 53.993847 -6.239588 22,650 347 371 2496
2021-01-26 06:54:40 GMT 53.990307 -6.238215 22,575 347 371 2496
2021-01-26 06:54:38 GMT 53.981697 -6.234660 22,450 347 370 2496
2021-01-26 06:54:35 GMT 53.981697 -6.234660 22,375 347 370 2496
2021-01-26 06:54:32 GMT 53.976200 -6.232479 22,250 347 369 2432
2021-01-26 06:54:29 GMT 53.971222 -6.230460 22,125 347 368 2496
2021-01-26 06:54:26 GMT 53.967079 -6.228763 21,950 347 367 2560
2021-01-26 06:54:23 GMT 53.962284 -6.226825 21,900 347 367 2560
2021-01-26 06:54:21 GMT 53.957165 -6.224805 21,725 347 367 2560
2021-01-26 06:54:18 GMT 53.953018 -6.223109 21,625 347 367 2560
2021-01-26 06:54:15 GMT 53.949554 -6.221715 21,500 347 366 2432
2021-01-26 06:54:12 GMT 53.943283 -6.219203 21,450 347 366 2368
2021-01-26 06:54:09 GMT 53.938354 -6.217212 21,300 347 366 2304
2021-01-26 06:54:06 GMT 53.932259 -6.214788 21,125 347 364 2432
2021-01-26 06:54:03 GMT 53.929325 -6.213576 21,075 347 363 2432
2021-01-26 06:54:01 GMT 53.920990 -6.210257 20,900 347 362 2240
2021-01-26 06:53:58 GMT 53.920990 -6.210257 20,800 347 362 2240
2021-01-26 06:53:55 GMT 53.915955 -6.208217 20,750 347 361 2240
2021-01-26 06:53:52 GMT 53.910553 -6.206098 20,625 347 360 2240
2021-01-26 06:53:49 GMT 53.906700 -6.204529 20,500 347 359 2304
2021-01-26 06:53:46 GMT 53.901993 -6.202645 20,425 347 358 2304
2021-01-26 06:53:43 GMT 53.896832 -6.200570 20,300 347 357 2304
2021-01-26 06:53:40 GMT 53.891693 -6.198565 20,100 347 356 2240
2021-01-26 06:53:37 GMT 53.886868 -6.196612 20,075 347 355 2240
2021-01-26 06:53:33 GMT 53.880020 -6.193935 19,925 347 354 2240
2021-01-26 06:53:30 GMT 53.875557 -6.192088 19,800 347 353 2304
2021-01-26 06:53:27 GMT 53.870949 -6.190230 19,650 347 351 2304
2021-01-26 06:53:22 GMT 53.861778 -6.186595 19,475 347 349 2368
2021-01-26 06:53:19 GMT 53.857868 -6.184980 19,425 347 349 2432
2021-01-26 06:53:16 GMT 53.854568 -6.183655 19,275 347 347 2432
2021-01-26 06:53:13 GMT 53.848480 -6.181222 19,125 347 346 2560
2021-01-26 06:53:10 GMT 53.843948 -6.179339 18,975 347 345 2816
2021-01-26 06:53:07 GMT 53.839291 -6.177467 18,475 347 345 2816
2021-01-26 06:53:03 GMT 53.832962 -6.174866 18,650 347 344 2880
2021-01-26 06:52:59 GMT 53.827374 -6.172620 18,400 347 344 2944
2021-01-26 06:52:56 GMT 53.823349 -6.170942 18,300 347 344 3136
2021-01-26 06:52:53 GMT 53.817783 -6.168742 18,175 347 344 3136
2021-01-26 06:52:50 GMT 53.812057 -6.166400 17,975 347 344 3072
2021-01-26 06:52:46 GMT 53.808193 -6.164865 17,725 347 343 3072
2021-01-26 06:52:43 GMT 53.802338 -6.162467 17,650 347 343 3136
2021-01-26 06:52:40 GMT 53.798630 -6.160976 17,550 347 343 3264
2021-01-26 06:52:37 GMT 53.792320 -6.158402 17,300 347 343 3392
2021-01-26 06:52:33 GMT 53.787094 -6.156267 17,100 347 343 3264
2021-01-26 06:52:29 GMT 53.780777 -6.153678 16,900 347 342 3264
2021-01-26 06:52:26 GMT 53.776119 -6.151778 16,700 347 342 3200
2021-01-26 06:52:22 GMT 53.769836 -6.149274 16,500 347 342 3200
2021-01-26 06:52:19 GMT 53.765366 -6.147416 16,275 347 341 3200
2021-01-26 06:52:16 GMT 53.760773 -6.145595 16,150 347 341 3200
2021-01-26 06:52:13 GMT 53.756149 -6.143700 16,025 347 341 3072
2021-01-26 06:52:11 GMT 53.752167 -6.142064 15,900 347 341 3072
2021-01-26 06:52:06 GMT 53.743767 -6.138611 15,625 347 340 3136
2021-01-26 06:52:03 GMT 53.741020 -6.137480 15,475 347 339 3008
2021-01-26 06:52:01 GMT 53.736877 -6.135864 15,375 347 339 3008
2021-01-26 06:51:58 GMT 53.733711 -6.134572 15,300 347 338 3072
2021-01-26 06:51:55 GMT 53.728683 -6.132471 15,100 347 338 3136
2021-01-26 06:51:52 GMT 53.725052 -6.131017 14,975 347 337 3008
2021-01-26 06:51:48 GMT 53.713531 -6.126369 14,700 347 336 3136
2021-01-26 06:51:45 GMT 53.713531 -6.126369 14,600 347 335 3200
2021-01-26 06:51:42 GMT 53.709320 -6.124716 14,450 347 334 3328
2021-01-26 06:51:40 GMT 53.706291 -6.123505 14,325 347 334 3328
2021-01-26 06:51:36 GMT 53.700897 -6.121347 14,125 347 334 3200
2021-01-26 06:51:33 GMT 53.693817 -6.118577 13,950 347 334 3200
2021-01-26 06:51:30 GMT 53.690643 -6.117344 13,775 347 333 3264
2021-01-26 06:51:26 GMT 53.679245 -6.112841 13,400 348 333 3264
2021-01-26 06:51:22 GMT 53.679245 -6.112841 13,400 348 333 3264
2021-01-26 06:51:18 GMT 53.673382 -6.110580 13,075 347 332 3328
2021-01-26 06:51:15 GMT 53.668900 -6.108869 12,975 348 332 3200
2021-01-26 06:51:12 GMT 53.663635 -6.106829 12,800 348 332 3136
2021-01-26 06:51:08 GMT 53.658253 -6.104763 12,500 348 331 3200
2021-01-26 06:51:05 GMT 53.653641 -6.102986 12,450 348 331 3200
2021-01-26 06:51:02 GMT 53.648849 -6.101179 12,325 348 331 3392
2021-01-26 06:50:58 GMT 53.643494 -6.099109 12,000 348 331 3456
2021-01-26 06:50:55 GMT 53.638550 -6.097255 11,875 348 331 3264
2021-01-26 06:50:52 GMT 53.633762 -6.095393 11,750 348 331 3136
2021-01-26 06:50:48 GMT 53.627838 -6.093096 11,425 347 328 2368
2021-01-26 06:50:45 GMT 53.623383 -6.091353 11,400 347 328 2240
2021-01-26 06:50:42 GMT 53.619659 -6.089899 11,325 347 326 1792
2021-01-26 06:50:38 GMT 53.613510 -6.087524 11,200 347 319 960
2021-01-26 06:50:35 GMT 53.609894 -6.086112 11,200 347 317 960
2021-01-26 06:50:32 GMT 53.604904 -6.084072 11,150 347 313 960
2021-01-26 06:50:29 GMT 53.601551 -6.082710 11,050 347 306 1024
2021-01-26 06:50:25 GMT 53.596024 -6.080540 11,025 347 305 1024
2021-01-26 06:50:22 GMT 53.591812 -6.078814 10,950 347 299 1088
2021-01-26 06:50:20 GMT 53.587772 -6.077217 10,925 347 295 1152
2021-01-26 06:50:15 GMT 53.581284 -6.074576 10,800 347 286 1216
2021-01-26 06:50:11 GMT 53.577301 -6.073007 10,700 347 282 1408
2021-01-26 06:50:08 GMT 53.572456 -6.070996 10,650 347 279 1920
2021-01-26 06:50:04 GMT 53.568420 -6.069397 10,525 347 276 2624
2021-01-26 06:50:01 GMT 53.562836 -6.067200 10,300 347 275 3456
2021-01-26 06:49:58 GMT 53.559769 -6.065944 10,175 347 275 3456
2021-01-26 06:49:55 GMT 53.557278 -6.065019 9,975 347 275 3328
2021-01-26 06:49:52 GMT 53.549458 -6.061868 9,750 347 275 3264
2021-01-26 06:49:49 GMT 53.549458 -6.061868 9,600 347 275 3264
2021-01-26 06:49:45 GMT 53.544617 -6.059929 9,425 347 275 3264
2021-01-26 06:49:42 GMT 53.536938 -6.056779 9,300 347 275 3200
2021-01-26 06:49:39 GMT 53.536938 -6.056779 9,025 347 275 3264
2021-01-26 06:49:36 GMT 53.532761 -6.055115 8,975 347 275 3328
2021-01-26 06:49:32 GMT 53.525436 -6.052174 8,625 347 275 3264
2021-01-26 06:49:28 GMT 53.523331 -6.051270 8,550 347 275 3264
2021-01-26 06:49:25 GMT 53.519348 -6.049700 8,325 347 275 3328
2021-01-26 06:49:21 GMT 53.513428 -6.047327 8,100 347 276 3520
2021-01-26 06:49:17 GMT 53.509052 -6.045550 7,850 347 277 3712
2021-01-26 06:49:14 GMT 53.505341 -6.044128 7,725 347 278 3648
2021-01-26 06:49:11 GMT 53.503464 -6.043369 7,625 347 278 3584
2021-01-26 06:49:09 GMT 53.499184 -6.041753 7,425 347 279 3456
2021-01-26 06:49:05 GMT 53.494904 -6.040048 7,175 347 280 3072
2021-01-26 06:49:02 GMT 53.491104 -6.038557 7,075 347 280 3072
2021-01-26 06:48:56 GMT 53.482563 -6.035129 6,775 347 278 2816
2021-01-26 06:48:52 GMT 53.478333 -6.033378 6,600 346 277 3008
2021-01-26 06:48:50 GMT 53.475815 -6.032279 6,500 346 276 3200
2021-01-26 06:48:46 GMT 53.471249 -6.030282 6,100 349 278 3264
2021-01-26 06:48:42 GMT 53.465897 -6.028101 6,075 349 278 3264
2021-01-26 06:48:39 GMT 53.462585 -6.027021 5,850 356 281 2880
2021-01-26 06:48:36 GMT 53.457146 -6.026243 5,725 0 283 2752
2021-01-26 06:48:32 GMT 53.453373 -6.026324 5,600 4 283 2816
2021-01-26 06:48:28 GMT 53.447891 -6.027414 5,300 14 284 2944
2021-01-26 06:48:25 GMT 53.444016 -6.028909 5,250 15 284 2944
2021-01-26 06:48:21 GMT 53.439781 -6.031171 5,075 21 286 2880
2021-01-26 06:48:16 GMT 53.433151 -6.036673 4,750 37 284 2304
2021-01-26 06:48:12 GMT 53.428841 -6.041753 4,675 38 283 2240
2021-01-26 06:48:08 GMT 53.424511 -6.048135 4,500 46 280 2304
2021-01-26 06:48:05 GMT 53.421532 -6.053790 4,375 57 274 1472
2021-01-26 06:48:02 GMT 53.419968 -6.057155 4,325 57 274 1472
2021-01-26 06:47:56 GMT 53.415985 -6.068848 4,200 67 263 1152
2021-01-26 06:47:52 GMT 53.414364 -6.075601 4,125 73 256 1280
2021-01-26 06:47:48 GMT 53.412964 -6.084385 4,000 80 248 1408
2021-01-26 06:47:45 GMT 53.412594 -6.088203 3,925 85 243 1792
2021-01-26 06:47:42 GMT 53.412224 -6.095150 3,850 88 240 2304
2021-01-26 06:47:38 GMT 53.412323 -6.105966 3,600 93 235 2880
2021-01-26 06:47:35 GMT 53.412315 -6.106864 3,575 93 235 2880
2021-01-26 06:47:32 GMT 53.412552 -6.113107 3,400 93 234 2496
2021-01-26 06:47:25 GMT 53.412964 -6.125035 3,125 92 229 1728
2021-01-26 06:47:22 GMT 53.413155 -6.131583 3,075 92 229 1728
2021-01-26 06:47:15 GMT 53.413559 -6.143947 2,925 93 218 832
2021-01-26 06:47:12 GMT 53.413696 -6.148891 2,900 93 213 896
2021-01-26 06:47:04 GMT 53.414154 -6.160897 2,775 94 202 1088
2021-01-26 06:47:01 GMT 53.414383 -6.165370 2,725 95 197 1152
2021-01-26 06:46:55 GMT 53.415070 -6.175807 2,600 97 187 1280
2021-01-26 06:46:52 GMT 53.415436 -6.180133 2,525 98 183 1280
2021-01-26 06:46:45 GMT 53.416306 -6.189383 2,325 99 173 1472
2021-01-26 06:46:41 GMT 53.416782 -6.194108 2,300 100 170 1664
2021-01-26 06:46:37 GMT 53.417358 -6.199350 2,175 100 168 2240
2021-01-26 06:46:34 GMT 53.417770 -6.202802 2,075 100 167 2368
2021-01-26 06:46:31 GMT 53.418274 -6.207511 1,900 100 167 2496
2021-01-26 06:46:27 GMT 53.418732 -6.211670 1,775 99 168 2560
2021-01-26 06:46:24 GMT 53.419098 -6.215437 1,650 97 167 2496
2021-01-26 06:46:21 GMT 53.419464 -6.220616 1,475 95 168 2496
2021-01-26 06:46:14 GMT 53.419830 -6.228542 1,200 92 170 2752
2021-01-26 06:46:11 GMT 53.419876 -6.233800 1,025 90 172 2624
2021-01-26 06:46:04 GMT 53.420013 -6.242039 750 92 172 2560
2021-01-26 06:46:01 GMT 53.420151 -6.246983 575 93 171 2496
2021-01-26 06:45:54 GMT 53.420517 -6.255144 375 95 168 896
2021-01-26 06:43:36 GMT 53.423813 -6.283574 0 275 15
2021-01-26 06:43:28 GMT 53.423767 -6.282625 0 272 15
2021-01-26 06:42:56 GMT 53.423561 -6.278922 0 272 16
2021-01-26 06:42:47 GMT 53.423512 -6.277879 0 272 15
2021-01-26 06:42:42 GMT 53.423477 -6.277273 0 272 15
2021-01-26 06:42:30 GMT 53.423401 -6.275940 0 272 15
2021-01-26 06:42:19 GMT 53.423332 -6.274802 0 272 14
2021-01-26 06:41:58 GMT 53.423222 -6.272688 0 272 13
2021-01-26 06:41:48 GMT 53.423172 -6.271761 0 272 12
2021-01-26 06:41:35 GMT 53.423103 -6.270507 0 272 13
2021-01-26 06:41:27 GMT 53.423058 -6.269741 0 272 14
2021-01-26 06:41:15 GMT 53.422989 -6.268508 0 272 12
2021-01-26 06:41:08 GMT 53.422962 -6.267922 0 272 12
2021-01-26 06:40:54 GMT 53.422894 -6.266711 0 272 12
2021-01-26 06:40:45 GMT 53.422848 -6.265822 0 275 12
2021-01-26 06:40:37 GMT 53.422794 -6.265150 0 275 12
2021-01-26 06:40:34 GMT 53.422783 -6.264816 0 272 12
2021-01-26 06:40:25 GMT 53.422745 -6.264065 0 275 12
2021-01-26 06:40:15 GMT 53.422703 -6.263168 0 272 11
2021-01-26 06:40:05 GMT 53.422703 -6.262384 0 258 11
2021-01-26 06:39:56 GMT 53.422836 -6.261561 0 244 12
2021-01-26 06:39:48 GMT 53.423012 -6.261036 0 233 12
2021-01-26 06:39:44 GMT 53.423161 -6.260733 0 227 12
2021-01-26 06:39:39 GMT 53.423321 -6.260441 0 225 12
2021-01-26 06:39:32 GMT 53.423595 -6.259971 0 227 12
2021-01-26 06:39:29 GMT 53.423687 -6.259804 0 227 12
2021-01-26 06:39:18 GMT 53.424065 -6.259147 0 222 12
2021-01-26 06:39:14 GMT 53.424232 -6.258915 0 210 11
2021-01-26 06:39:09 GMT 53.424477 -6.258715 0 185 12
2021-01-26 06:39:05 GMT 53.424698 -6.258754 0 151 12
2021-01-26 06:38:59 GMT 53.424942 -6.259097 0 112 12
2021-01-26 06:38:55 GMT 53.425003 -6.259460 0 98 13
2021-01-26 06:38:49 GMT 53.425037 -6.260006 0 95 12
2021-01-26 06:38:44 GMT 53.425060 -6.260450 0 95 10
2021-01-26 06:38:36 GMT 53.425095 -6.260995 0 95 9
2021-01-26 06:38:33 GMT 53.425095 -6.261148 0 95 8
2021-01-26 06:38:27 GMT 53.425117 -6.261480 0 92 6
2021-01-26 06:38:18 GMT 53.425129 -6.261834 0 92 4
2021-01-26 06:38:13 GMT 53.425129 -6.261965 0 92 0
2021-01-26 06:38:03 GMT 53.425140 -6.262025 0 92 0
2021-01-26 06:37:53 GMT 53.425140 -6.262030 0 92 0
2021-01-26 06:37:44 GMT 53.425140 -6.262025 0 92 0
2021-01-26 06:37:33 GMT 53.425140 -6.262030 0 92 0
2021-01-26 06:37:23 GMT 53.425140 -6.262025 0 92 0
2021-01-26 06:37:12 GMT 53.425140 -6.262030 0 92 0
2021-01-26 06:37:03 GMT 53.425140 -6.262025 0 92 0
2021-01-26 06:36:53 GMT 53.425140 -6.262030 0 92 0
2021-01-26 06:36:39 GMT 53.425140 -6.262025 0 92 0
2021-01-26 06:36:28 GMT 53.425140 -6.262030 0 92 0
2021-01-26 06:36:08 GMT 53.425140 -6.262025 0 92 0
2021-01-26 06:35:48 GMT 53.425140 -6.262030 0 92 0
2021-01-26 06:35:38 GMT 53.425140 -6.262025 0 92 0
2021-01-26 06:35:29 GMT 53.425140 -6.262030 0 92 0
2021-01-26 06:35:18 GMT 53.425140 -6.262025 0 92 0
2021-01-26 06:35:08 GMT 53.425140 -6.262030 0 92 0
2021-01-26 06:34:48 GMT 53.425140 -6.262025 0 92 0
2021-01-26 06:34:41 GMT 53.425140 -6.262030 0 92 0
2021-01-26 06:34:30 GMT 53.425140 -6.262025 0 92 0
2021-01-26 06:34:21 GMT 53.425140 -6.261972 0 92 3
2021-01-26 06:34:14 GMT 53.425140 -6.261854 0 87 3
2021-01-26 06:34:09 GMT 53.425152 -6.261743 0 84 3
2021-01-26 06:34:04 GMT 53.425152 -6.261638 0 87 3
2021-01-26 06:33:58 GMT 53.425140 -6.261501 0 95 3
2021-01-26 06:33:53 GMT 53.425129 -6.261422 0 95 3
2021-01-26 06:33:50 GMT 53.425117 -6.261383 0 101 2
2021-01-26 06:33:40 GMT 53.425049 -6.261246 0 123 3
2021-01-26 06:33:34 GMT 53.425014 -6.261167 0 126 3
2021-01-26 06:33:29 GMT 53.424965 -6.261116 0 137 3
2021-01-26 06:33:23 GMT 53.424889 -6.261050 0 151 3
2021-01-26 06:33:13 GMT 53.424763 -6.261010 0 163 3
2021-01-26 06:33:07 GMT 53.424675 -6.260975 0 168 3
2021-01-26 06:33:04 GMT 53.424648 -6.260971 0 168 3
2021-01-26 06:32:54 GMT 53.424522 -6.260955 0 174 3
2021-01-26 06:32:49 GMT 53.424465 -6.260951 0 177 3
2021-01-26 06:32:43 GMT 53.424397 -6.260951 0 180 3
2021-01-26 06:32:39 GMT 53.424335 -6.260975 0 182 3
2021-01-26 06:32:33 GMT 53.424282 -6.260971 0 182 3
2021-01-26 06:32:24 GMT 53.424187 -6.260995 0 185 0
2021-01-26 06:31:59 GMT 53.424175 -6.260995 0 185 0
2021-01-26 06:31:49 GMT 53.424179 -6.260991 0 185 0
2021-01-26 06:31:09 GMT 53.424175 -6.260995 0 185 0
2021-01-26 06:30:58 GMT 53.424179 -6.260991 0 185 0
2021-01-26 06:30:03 GMT 53.424175 -6.260995 0 185 0
2021-01-26 06:29:48 GMT 53.424179 -6.260991 0 185 0

Making use of Plane Finder data

You are free to use the raw flight data, aircraft information and images provided in this report for your own purposes provided the data is correctly attributed to Plane Finder. We ask that you please credit Plane Finder and link to planefinder.net in close proximity to the content.

Optionally one of the following logos (no smaller then 150x24px) can be used and must link to planefinder.net

Embedding the Plane Finder map

You are welcome to embed the Plane Finder playback map on your website to offer visitors a more interactive experience. We suggest using the following HTML code:

<iframe src="//planefinder.net/data/report/BF6810-TF-BBN-7700-squawk-2021-01-26/map" width="800" height="600" seamless="seamless"></iframe>

Where our data comes from

Plane Finder has a global network of data feeds and antenna radars that receive data broadcast directly from aircraft. The primary technologies used are ADS-B and MLAT. We also show feeds from the FAA and a FLARM glider feed.

Click here to find out more about the Plane Finder network.

How we collect our data